PWSweather.com
Personal Weather Stations
Station Observations
DL5ARK
SonnebergDE

SonnebergDE

Lat: 50.34904861, Lon: 11.18112087

Elevation: 1214

Station Type: Selfmade

http://www.sumbarg.de

High Low Average
Temperature 81.5°F27.5°C 55.2°F12.9°C 67.2°F19.6°C
Dew Point 70.7°F21.5°C 58.2°F14.6°C 64.4°F18.0°C
Winds 16.5 mph 26.6 kmh Calm Calm 2.0 mph S3.2 kmh S
Wind Gusts 16.5 mph26.6 kmh -- 2.0 mph3.2 kmh
Humidity 89% 48% 72%
Pressure 29.87 in1011.5 mb 29.75 in1007.5 mb -
Precipitation 0.00 in0.0 mm - -
Hour Temp Dew Point Humidity Winds Wind Gusts Pressure Precip Precip Rate Daily Precip Total
12:44 AM 56.8°F13.8°C 59.8°F15.4°C 82% 1.6 mph NNW2.6 kmh NNW 1.6 mph2.6 kmh 29.85 in1010.8 mb 0.00 in0.0 mm 0.00 in0.0 mm 0.00 in0.0 mm
01:02 AM 56.0°F13.3°C 59.2°F15.1°C 81% Calm Calm -- 29.83 in1010.2 mb 0.00 in0.0 mm 0.00 in0.0 mm 0.00 in0.0 mm
01:59 AM 55.4°F13.0°C 58.6°F14.8°C 83% 0.8 mph NNE1.3 kmh NNE 0.8 mph1.3 kmh 29.81 in1009.5 mb 0.00 in0.0 mm 0.00 in0.0 mm 0.00 in0.0 mm
02:02 AM 55.3°F12.9°C 58.3°F14.6°C 82% Calm Calm -- 29.82 in1009.8 mb 0.00 in0.0 mm 0.00 in0.0 mm 0.00 in0.0 mm
02:03 AM 55.3°F12.9°C 58.7°F14.8°C 83% Calm Calm -- 29.82 in1009.8 mb 0.00 in0.0 mm 0.00 in0.0 mm 0.00 in0.0 mm
02:05 AM 55.3°F12.9°C 58.7°F14.8°C 83% Calm Calm -- 29.82 in1009.8 mb 0.00 in0.0 mm 0.00 in0.0 mm 0.00 in0.0 mm
02:06 AM 55.2°F12.9°C 58.7°F14.8°C 83% Calm Calm -- 29.82 in1009.8 mb 0.00 in0.0 mm 0.00 in0.0 mm 0.00 in0.0 mm
02:08 AM 55.4°F13.0°C 58.7°F14.8°C 83% Calm Calm -- 29.81 in1009.5 mb 0.00 in0.0 mm 0.00 in0.0 mm 0.00 in0.0 mm
02:09 AM 55.4°F13.0°C 58.7°F14.8°C 83% Calm Calm -- 29.81 in1009.5 mb 0.00 in0.0 mm 0.00 in0.0 mm 0.00 in0.0 mm
02:11 AM 55.4°F13.0°C 58.5°F14.7°C 83% Calm Calm -- 29.81 in1009.5 mb 0.00 in0.0 mm 0.00 in0.0 mm 0.00 in0.0 mm
02:12 AM 55.4°F13.0°C 58.2°F14.6°C 82% Calm Calm -- 29.81 in1009.5 mb 0.00 in0.0 mm 0.00 in0.0 mm 0.00 in0.0 mm
02:14 AM 55.4°F13.0°C 59.3°F15.2°C 85% 0.4 mph ESE0.6 kmh ESE 0.4 mph0.6 kmh 29.80 in1009.1 mb 0.00 in0.0 mm 0.00 in0.0 mm 0.00 in0.0 mm
02:15 AM 55.3°F12.9°C 59.0°F15.0°C 85% 0.7 mph ESE1.1 kmh ESE 0.7 mph1.1 kmh 29.80 in1009.1 mb 0.00 in0.0 mm 0.00 in0.0 mm 0.00 in0.0 mm
02:17 AM 55.3°F12.9°C 59.2°F15.1°C 84% Calm Calm -- 29.79 in1008.8 mb 0.00 in0.0 mm 0.00 in0.0 mm 0.00 in0.0 mm
02:18 AM 55.3°F12.9°C 58.9°F14.9°C 84% Calm Calm -- 29.79 in1008.8 mb 0.00 in0.0 mm 0.00 in0.0 mm 0.00 in0.0 mm
02:20 AM 55.3°F12.9°C 58.5°F14.7°C 83% 1.6 mph SW2.6 kmh SW 1.6 mph2.6 kmh 29.81 in1009.5 mb 0.00 in0.0 mm 0.00 in0.0 mm 0.00 in0.0 mm
02:21 AM 55.3°F12.9°C 58.6°F14.8°C 83% 1.4 mph SW2.3 kmh SW 1.4 mph2.3 kmh 29.81 in1009.5 mb 0.00 in0.0 mm 0.00 in0.0 mm 0.00 in0.0 mm
02:23 AM 55.5°F13.1°C 58.7°F14.8°C 84% Calm Calm -- 29.81 in1009.5 mb 0.00 in0.0 mm 0.00 in0.0 mm 0.00 in0.0 mm
02:24 AM 55.6°F13.1°C 58.9°F14.9°C 84% Calm Calm -- 29.81 in1009.5 mb 0.00 in0.0 mm 0.00 in0.0 mm 0.00 in0.0 mm
02:26 AM 55.3°F12.9°C 58.8°F14.9°C 84% Calm Calm -- 29.81 in1009.5 mb 0.00 in0.0 mm 0.00 in0.0 mm 0.00 in0.0 mm
02:27 AM 55.3°F12.9°C 59.1°F15.1°C 84% Calm Calm -- 29.80 in1009.1 mb 0.00 in0.0 mm 0.00 in0.0 mm 0.00 in0.0 mm
02:29 AM 55.6°F13.1°C 58.7°F14.8°C 84% 1.6 mph SW2.6 kmh SW 1.6 mph2.6 kmh 29.81 in1009.5 mb 0.00 in0.0 mm 0.00 in0.0 mm 0.00 in0.0 mm
02:30 AM 55.6°F13.1°C 58.7°F14.8°C 84% 0.9 mph SW1.4 kmh SW 0.9 mph1.4 kmh 29.81 in1009.5 mb 0.00 in0.0 mm 0.00 in0.0 mm 0.00 in0.0 mm
02:32 AM 55.7°F13.2°C 58.8°F14.9°C 84% Calm Calm -- 29.81 in1009.5 mb 0.00 in0.0 mm 0.00 in0.0 mm 0.00 in0.0 mm
02:33 AM 55.9°F13.3°C 58.9°F14.9°C 84% Calm Calm -- 29.81 in1009.5 mb 0.00 in0.0 mm 0.00 in0.0 mm 0.00 in0.0 mm
02:35 AM 55.9°F13.3°C 59.1°F15.1°C 85% Calm Calm -- 29.81 in1009.5 mb 0.00 in0.0 mm 0.00 in0.0 mm 0.00 in0.0 mm
02:36 AM 55.7°F13.2°C 59.0°F15.0°C 85% Calm Calm -- 29.81 in1009.5 mb 0.00 in0.0 mm 0.00 in0.0 mm 0.00 in0.0 mm
02:38 AM 56.0°F13.3°C 58.9°F14.9°C 85% Calm Calm -- 29.81 in1009.5 mb 0.00 in0.0 mm 0.00 in0.0 mm 0.00 in0.0 mm
02:39 AM 56.0°F13.3°C 59.2°F15.1°C 85% Calm Calm -- 29.81 in1009.5 mb 0.00 in0.0 mm 0.00 in0.0 mm 0.00 in0.0 mm
02:41 AM 55.7°F13.2°C 59.1°F15.1°C 84% Calm Calm -- 29.80 in1009.1 mb 0.00 in0.0 mm 0.00 in0.0 mm 0.00 in0.0 mm
02:42 AM 55.7°F13.2°C 59.0°F15.0°C 84% Calm Calm -- 29.81 in1009.5 mb 0.00 in0.0 mm 0.00 in0.0 mm 0.00 in0.0 mm
02:44 AM 55.7°F13.2°C 59.1°F15.1°C 85% 3.2 mph NNE5.1 kmh NNE 3.3 mph5.3 kmh 29.79 in1008.8 mb 0.00 in0.0 mm 0.00 in0.0 mm 0.00 in0.0 mm
02:45 AM 55.7°F13.2°C 59.0°F15.0°C 85% 3.5 mph NNE5.6 kmh NNE 3.5 mph5.6 kmh 29.80 in1009.1 mb 0.00 in0.0 mm 0.00 in0.0 mm 0.00 in0.0 mm
02:47 AM 55.6°F13.1°C 58.8°F14.9°C 84% 1.2 mph NW1.9 kmh NW 1.2 mph1.9 kmh 29.80 in1009.1 mb 0.00 in0.0 mm 0.00 in0.0 mm 0.00 in0.0 mm
02:48 AM 55.7°F13.2°C 58.6°F14.8°C 84% 1.9 mph NW3.1 kmh NW 1.9 mph3.1 kmh 29.80 in1009.1 mb 0.00 in0.0 mm 0.00 in0.0 mm 0.00 in0.0 mm
02:50 AM 56.0°F13.3°C 58.8°F14.9°C 84% Calm Calm -- 29.81 in1009.5 mb 0.00 in0.0 mm 0.00 in0.0 mm 0.00 in0.0 mm
02:51 AM 56.0°F13.3°C 58.7°F14.8°C 84% 0.2 mph NW0.3 kmh NW 0.3 mph0.5 kmh 29.81 in1009.5 mb 0.00 in0.0 mm 0.00 in0.0 mm 0.00 in0.0 mm
02:53 AM 56.0°F13.3°C 59.0°F15.0°C 85% 0.8 mph NW1.3 kmh NW 0.8 mph1.3 kmh 29.81 in1009.5 mb 0.00 in0.0 mm 0.00 in0.0 mm 0.00 in0.0 mm
02:54 AM 56.0°F13.3°C 58.9°F14.9°C 84% 0.7 mph NW1.1 kmh NW 0.8 mph1.3 kmh 29.81 in1009.5 mb 0.00 in0.0 mm 0.00 in0.0 mm 0.00 in0.0 mm
02:56 AM 56.3°F13.5°C 59.1°F15.1°C 85% 0.4 mph NW0.6 kmh NW 0.4 mph0.6 kmh 29.81 in1009.5 mb 0.00 in0.0 mm 0.00 in0.0 mm 0.00 in0.0 mm
02:57 AM 56.3°F13.5°C 58.7°F14.8°C 84% 0.5 mph NW0.8 kmh NW 0.5 mph0.8 kmh 29.81 in1009.5 mb 0.00 in0.0 mm 0.00 in0.0 mm 0.00 in0.0 mm
02:59 AM 56.4°F13.6°C 59.2°F15.1°C 85% Calm Calm -- 29.81 in1009.5 mb 0.00 in0.0 mm 0.00 in0.0 mm 0.00 in0.0 mm
03:00 AM 56.3°F13.5°C 58.9°F14.9°C 85% 0.3 mph WNW0.5 kmh WNW 0.3 mph0.5 kmh 29.81 in1009.5 mb 0.00 in0.0 mm 0.00 in0.0 mm 0.00 in0.0 mm
03:02 AM 56.6°F13.7°C 59.2°F15.1°C 85% 1.6 mph NNW2.6 kmh NNW 1.6 mph2.6 kmh 29.81 in1009.5 mb 0.00 in0.0 mm 0.00 in0.0 mm 0.00 in0.0 mm
03:03 AM 56.5°F13.6°C 59.3°F15.2°C 85% 1.7 mph NNW2.7 kmh NNW 1.7 mph2.7 kmh 29.81 in1009.5 mb 0.00 in0.0 mm 0.00 in0.0 mm 0.00 in0.0 mm
03:05 AM 56.6°F13.7°C 59.3°F15.2°C 85% Calm Calm -- 29.81 in1009.5 mb 0.00 in0.0 mm 0.00 in0.0 mm 0.00 in0.0 mm
03:06 AM 56.6°F13.7°C 59.3°F15.2°C 85% 0.7 mph NNW1.1 kmh NNW 0.7 mph1.1 kmh 29.81 in1009.5 mb 0.00 in0.0 mm 0.00 in0.0 mm 0.00 in0.0 mm
03:08 AM 56.8°F13.8°C 59.2°F15.1°C 85% Calm Calm -- 29.81 in1009.5 mb 0.00 in0.0 mm 0.00 in0.0 mm 0.00 in0.0 mm
03:09 AM 56.8°F13.8°C 59.1°F15.1°C 85% Calm Calm -- 29.81 in1009.5 mb 0.00 in0.0 mm 0.00 in0.0 mm 0.00 in0.0 mm
03:11 AM 56.6°F13.7°C 59.4°F15.2°C 85% 1.2 mph NNE1.9 kmh NNE 1.2 mph1.9 kmh 29.81 in1009.5 mb 0.00 in0.0 mm 0.00 in0.0 mm 0.00 in0.0 mm
03:12 AM 56.6°F13.7°C 58.8°F14.9°C 84% 0.9 mph NNE1.4 kmh NNE 0.9 mph1.4 kmh 29.81 in1009.5 mb 0.00 in0.0 mm 0.00 in0.0 mm 0.00 in0.0 mm
03:14 AM 56.6°F13.7°C 59.2°F15.1°C 86% 1.2 mph NNE1.9 kmh NNE 1.2 mph1.9 kmh 29.81 in1009.5 mb 0.00 in0.0 mm 0.00 in0.0 mm 0.00 in0.0 mm
03:15 AM 56.6°F13.7°C 59.2°F15.1°C 85% 1.4 mph NNE2.3 kmh NNE 1.4 mph2.3 kmh 29.81 in1009.5 mb 0.00 in0.0 mm 0.00 in0.0 mm 0.00 in0.0 mm
03:17 AM 56.6°F13.7°C 59.3°F15.2°C 86% 1.2 mph 1.9 kmh 1.2 mph1.9 kmh 29.81 in1009.5 mb 0.00 in0.0 mm 0.00 in0.0 mm 0.00 in0.0 mm
03:18 AM 56.6°F13.7°C 59.5°F15.3°C 86% 1.4 mph 2.3 kmh 1.4 mph2.3 kmh 29.81 in1009.5 mb 0.00 in0.0 mm 0.00 in0.0 mm 0.00 in0.0 mm
03:20 AM 56.8°F13.8°C 59.4°F15.2°C 86% 2.4 mph NE3.9 kmh NE 2.4 mph3.9 kmh 29.81 in1009.5 mb 0.00 in0.0 mm 0.00 in0.0 mm 0.00 in0.0 mm
03:21 AM 56.8°F13.8°C 59.6°F15.3°C 85% 1.9 mph NE3.1 kmh NE 1.9 mph3.1 kmh 29.81 in1009.5 mb 0.00 in0.0 mm 0.00 in0.0 mm 0.00 in0.0 mm
03:23 AM 56.8°F13.8°C 59.8°F15.4°C 86% 1.2 mph NNW1.9 kmh NNW 1.2 mph1.9 kmh 29.81 in1009.5 mb 0.00 in0.0 mm 0.00 in0.0 mm 0.00 in0.0 mm
03:24 AM 56.8°F13.8°C 59.4°F15.2°C 86% 0.6 mph NNE1.0 kmh NNE 0.6 mph1.0 kmh 29.81 in1009.5 mb 0.00 in0.0 mm 0.00 in0.0 mm 0.00 in0.0 mm
03:26 AM 56.6°F13.7°C 59.7°F15.4°C 86% Calm Calm -- 29.81 in1009.5 mb 0.00 in0.0 mm 0.00 in0.0 mm 0.00 in0.0 mm
03:27 AM 56.5°F13.6°C 59.6°F15.3°C 85% Calm Calm -- 29.81 in1009.5 mb 0.00 in0.0 mm 0.00 in0.0 mm 0.00 in0.0 mm
03:29 AM 56.8°F13.8°C 59.3°F15.2°C 85% Calm Calm -- 29.81 in1009.5 mb 0.00 in0.0 mm 0.00 in0.0 mm 0.00 in0.0 mm
03:30 AM 56.8°F13.8°C 59.3°F15.2°C 85% Calm Calm -- 29.81 in1009.5 mb 0.00 in0.0 mm 0.00 in0.0 mm 0.00 in0.0 mm
03:32 AM 56.6°F13.7°C 59.4°F15.2°C 85% Calm Calm -- 29.81 in1009.5 mb 0.00 in0.0 mm 0.00 in0.0 mm 0.00 in0.0 mm
03:33 AM 56.8°F13.8°C 59.0°F15.0°C 85% Calm Calm -- 29.81 in1009.5 mb 0.00 in0.0 mm 0.00 in0.0 mm 0.00 in0.0 mm
03:35 AM 56.5°F13.6°C 59.3°F15.2°C 84% Calm Calm -- 29.81 in1009.5 mb 0.00 in0.0 mm 0.00 in0.0 mm 0.00 in0.0 mm
03:36 AM 56.5°F13.6°C 59.4°F15.2°C 85% Calm Calm -- 29.81 in1009.5 mb 0.00 in0.0 mm 0.00 in0.0 mm 0.00 in0.0 mm
03:38 AM 56.4°F13.6°C 59.5°F15.3°C 85% Calm Calm -- 29.81 in1009.5 mb 0.00 in0.0 mm 0.00 in0.0 mm 0.00 in0.0 mm
03:39 AM 56.4°F13.6°C 59.5°F15.3°C 85% Calm Calm -- 29.81 in1009.5 mb 0.00 in0.0 mm 0.00 in0.0 mm 0.00 in0.0 mm
03:41 AM 56.3°F13.5°C 59.4°F15.2°C 85% Calm Calm -- 29.81 in1009.5 mb 0.00 in0.0 mm 0.00 in0.0 mm 0.00 in0.0 mm
03:42 AM 56.3°F13.5°C 59.7°F15.4°C 85% Calm Calm -- 29.81 in1009.5 mb 0.00 in0.0 mm 0.00 in0.0 mm 0.00 in0.0 mm
03:44 AM 56.3°F13.5°C 59.6°F15.3°C 85% Calm Calm -- 29.81 in1009.5 mb 0.00 in0.0 mm 0.00 in0.0 mm 0.00 in0.0 mm
03:45 AM 56.3°F13.5°C 59.6°F15.3°C 85% Calm Calm -- 29.81 in1009.5 mb 0.00 in0.0 mm 0.00 in0.0 mm 0.00 in0.0 mm
03:47 AM 56.4°F13.6°C 59.6°F15.3°C 85% Calm Calm -- 29.81 in1009.5 mb 0.00 in0.0 mm 0.00 in0.0 mm 0.00 in0.0 mm
03:48 AM 56.4°F13.6°C 59.3°F15.2°C 85% 0.2 mph 0.3 kmh 0.3 mph0.5 kmh 29.81 in1009.5 mb 0.00 in0.0 mm 0.00 in0.0 mm 0.00 in0.0 mm
03:50 AM 56.5°F13.6°C 59.4°F15.2°C 85% Calm Calm -- 29.81 in1009.5 mb 0.00 in0.0 mm 0.00 in0.0 mm 0.00 in0.0 mm
03:51 AM 56.5°F13.6°C 59.6°F15.3°C 86% Calm Calm -- 29.81 in1009.5 mb 0.00 in0.0 mm 0.00 in0.0 mm 0.00 in0.0 mm
03:53 AM 56.4°F13.6°C 59.6°F15.3°C 86% Calm Calm -- 29.81 in1009.5 mb 0.00 in0.0 mm 0.00 in0.0 mm 0.00 in0.0 mm
03:54 AM 56.6°F13.7°C 59.5°F15.3°C 85% Calm Calm -- 29.81 in1009.5 mb 0.00 in0.0 mm 0.00 in0.0 mm 0.00 in0.0 mm
03:56 AM 56.6°F13.7°C 59.7°F15.4°C 85% Calm Calm -- 29.81 in1009.5 mb 0.00 in0.0 mm 0.00 in0.0 mm 0.00 in0.0 mm
03:59 AM 56.5°F13.6°C 59.4°F15.2°C 85% Calm Calm -- 29.82 in1009.8 mb 0.00 in0.0 mm 0.00 in0.0 mm 0.00 in0.0 mm
04:00 AM 56.5°F13.6°C 59.6°F15.3°C 85% Calm Calm -- 29.81 in1009.5 mb 0.00 in0.0 mm 0.00 in0.0 mm 0.00 in0.0 mm
04:02 AM 56.8°F13.8°C 59.7°F15.4°C 86% Calm Calm -- 29.82 in1009.8 mb 0.00 in0.0 mm 0.00 in0.0 mm 0.00 in0.0 mm
04:03 AM 56.9°F13.8°C 59.4°F15.2°C 85% Calm Calm -- 29.82 in1009.8 mb 0.00 in0.0 mm 0.00 in0.0 mm 0.00 in0.0 mm
04:05 AM 56.9°F13.8°C 59.7°F15.4°C 86% Calm Calm -- 29.82 in1009.8 mb 0.00 in0.0 mm 0.00 in0.0 mm 0.00 in0.0 mm
04:06 AM 56.6°F13.7°C 59.7°F15.4°C 86% Calm Calm -- 29.82 in1009.8 mb 0.00 in0.0 mm 0.00 in0.0 mm 0.00 in0.0 mm
04:08 AM 57.0°F13.9°C 59.8°F15.4°C 86% Calm Calm -- 29.82 in1009.8 mb 0.00 in0.0 mm 0.00 in0.0 mm 0.00 in0.0 mm
04:09 AM 56.9°F13.8°C 59.8°F15.4°C 86% Calm Calm -- 29.82 in1009.8 mb 0.00 in0.0 mm 0.00 in0.0 mm 0.00 in0.0 mm
04:11 AM 57.0°F13.9°C 59.8°F15.4°C 86% Calm Calm -- 29.83 in1010.2 mb 0.00 in0.0 mm 0.00 in0.0 mm 0.00 in0.0 mm
04:12 AM 56.9°F13.8°C 59.8°F15.4°C 86% Calm Calm -- 29.83 in1010.2 mb 0.00 in0.0 mm 0.00 in0.0 mm 0.00 in0.0 mm
04:14 AM 57.1°F13.9°C 59.7°F15.4°C 86% Calm Calm -- 29.83 in1010.2 mb 0.00 in0.0 mm 0.00 in0.0 mm 0.00 in0.0 mm
04:15 AM 57.0°F13.9°C 59.8°F15.4°C 86% Calm Calm -- 29.83 in1010.2 mb 0.00 in0.0 mm 0.00 in0.0 mm 0.00 in0.0 mm
04:17 AM 57.1°F13.9°C 59.6°F15.3°C 85% Calm Calm -- 29.83 in1010.2 mb 0.00 in0.0 mm 0.00 in0.0 mm 0.00 in0.0 mm
04:18 AM 57.0°F13.9°C 59.6°F15.3°C 85% Calm Calm -- 29.83 in1010.2 mb 0.00 in0.0 mm 0.00 in0.0 mm 0.00 in0.0 mm
04:20 AM 57.1°F13.9°C 59.4°F15.2°C 85% Calm Calm -- 29.83 in1010.2 mb 0.00 in0.0 mm 0.00 in0.0 mm 0.00 in0.0 mm
04:21 AM 57.1°F13.9°C 59.8°F15.4°C 86% Calm Calm -- 29.83 in1010.2 mb 0.00 in0.0 mm 0.00 in0.0 mm 0.00 in0.0 mm
04:23 AM 57.1°F13.9°C 59.8°F15.4°C 86% Calm Calm -- 29.83 in1010.2 mb 0.00 in0.0 mm 0.00 in0.0 mm 0.00 in0.0 mm
04:24 AM 57.1°F13.9°C 59.8°F15.4°C 86% Calm Calm -- 29.83 in1010.2 mb 0.00 in0.0 mm 0.00 in0.0 mm 0.00 in0.0 mm
04:26 AM 57.2°F14.0°C 59.9°F15.5°C 86% Calm Calm -- 29.83 in1010.2 mb 0.00 in0.0 mm 0.00 in0.0 mm 0.00 in0.0 mm
04:27 AM 57.2°F14.0°C 59.8°F15.4°C 86% Calm Calm -- 29.83 in1010.2 mb 0.00 in0.0 mm 0.00 in0.0 mm 0.00 in0.0 mm
04:29 AM 57.3°F14.1°C 59.7°F15.4°C 86% Calm Calm -- 29.83 in1010.2 mb 0.00 in0.0 mm 0.00 in0.0 mm 0.00 in0.0 mm
04:30 AM 57.3°F14.1°C 59.8°F15.4°C 86% Calm Calm -- 29.83 in1010.2 mb 0.00 in0.0 mm 0.00 in0.0 mm 0.00 in0.0 mm
04:32 AM 57.4°F14.1°C 59.9°F15.5°C 86% Calm Calm -- 29.82 in1009.8 mb 0.00 in0.0 mm 0.00 in0.0 mm 0.00 in0.0 mm
04:33 AM 57.4°F14.1°C 60.0°F15.6°C 86% Calm Calm -- 29.83 in1010.2 mb 0.00 in0.0 mm 0.00 in0.0 mm 0.00 in0.0 mm
04:35 AM 57.4°F14.1°C 59.8°F15.4°C 86% Calm Calm -- 29.82 in1009.8 mb 0.00 in0.0 mm 0.00 in0.0 mm 0.00 in0.0 mm
04:36 AM 57.4°F14.1°C 60.1°F15.6°C 86% Calm Calm -- 29.82 in1009.8 mb 0.00 in0.0 mm 0.00 in0.0 mm 0.00 in0.0 mm
04:38 AM 57.5°F14.2°C 60.2°F15.7°C 86% Calm Calm -- 29.83 in1010.2 mb 0.00 in0.0 mm 0.00 in0.0 mm 0.00 in0.0 mm
04:39 AM 57.5°F14.2°C 60.0°F15.6°C 86% Calm Calm -- 29.83 in1010.2 mb 0.00 in0.0 mm 0.00 in0.0 mm 0.00 in0.0 mm
04:41 AM 57.5°F14.2°C 60.2°F15.7°C 87% Calm Calm -- 29.83 in1010.2 mb 0.00 in0.0 mm 0.00 in0.0 mm 0.00 in0.0 mm
04:42 AM 57.5°F14.2°C 60.1°F15.6°C 86% Calm Calm -- 29.83 in1010.2 mb 0.00 in0.0 mm 0.00 in0.0 mm 0.00 in0.0 mm
04:44 AM 57.5°F14.2°C 60.1°F15.6°C 86% Calm Calm -- 29.83 in1010.2 mb 0.00 in0.0 mm 0.00 in0.0 mm 0.00 in0.0 mm
04:45 AM 57.5°F14.2°C 60.2°F15.7°C 86% Calm Calm -- 29.83 in1010.2 mb 0.00 in0.0 mm 0.00 in0.0 mm 0.00 in0.0 mm
04:47 AM 57.5°F14.2°C 60.4°F15.8°C 87% Calm Calm -- 29.83 in1010.2 mb 0.00 in0.0 mm 0.00 in0.0 mm 0.00 in0.0 mm
04:48 AM 57.7°F14.3°C 60.1°F15.6°C 87% Calm Calm -- 29.83 in1010.2 mb 0.00 in0.0 mm 0.00 in0.0 mm 0.00 in0.0 mm
04:50 AM 57.7°F14.3°C 60.4°F15.8°C 87% Calm Calm -- 29.82 in1009.8 mb 0.00 in0.0 mm 0.00 in0.0 mm 0.00 in0.0 mm
04:51 AM 57.7°F14.3°C 60.5°F15.8°C 87% Calm Calm -- 29.82 in1009.8 mb 0.00 in0.0 mm 0.00 in0.0 mm 0.00 in0.0 mm
04:53 AM 57.8°F14.3°C 60.4°F15.8°C 87% Calm Calm -- 29.83 in1010.2 mb 0.00 in0.0 mm 0.00 in0.0 mm 0.00 in0.0 mm
04:54 AM 57.8°F14.3°C 60.6°F15.9°C 87% Calm Calm -- 29.83 in1010.2 mb 0.00 in0.0 mm 0.00 in0.0 mm 0.00 in0.0 mm
04:56 AM 57.7°F14.3°C 60.3°F15.7°C 87% 0.8 mph NNW1.3 kmh NNW 0.8 mph1.3 kmh 29.83 in1010.2 mb 0.00 in0.0 mm 0.00 in0.0 mm 0.00 in0.0 mm
04:57 AM 57.5°F14.2°C 60.3°F15.7°C 87% 1.2 mph WSW1.9 kmh WSW 1.3 mph2.1 kmh 29.83 in1010.2 mb 0.00 in0.0 mm 0.00 in0.0 mm 0.00 in0.0 mm
04:59 AM 57.8°F14.3°C 60.6°F15.9°C 87% 0.8 mph WSW1.3 kmh WSW 0.8 mph1.3 kmh 29.84 in1010.5 mb 0.00 in0.0 mm 0.00 in0.0 mm 0.00 in0.0 mm
05:00 AM 57.8°F14.3°C 60.5°F15.8°C 87% 0.9 mph WSW1.4 kmh WSW 0.9 mph1.4 kmh 29.83 in1010.2 mb 0.00 in0.0 mm 0.00 in0.0 mm 0.00 in0.0 mm
05:02 AM 57.8°F14.3°C 60.6°F15.9°C 87% Calm Calm -- 29.83 in1010.2 mb 0.00 in0.0 mm 0.00 in0.0 mm 0.00 in0.0 mm
05:03 AM 57.8°F14.3°C 60.1°F15.6°C 86% Calm Calm -- 29.83 in1010.2 mb 0.00 in0.0 mm 0.00 in0.0 mm 0.00 in0.0 mm
05:05 AM 58.0°F14.4°C 60.7°F15.9°C 87% Calm Calm -- 29.84 in1010.5 mb 0.00 in0.0 mm 0.00 in0.0 mm 0.00 in0.0 mm
05:06 AM 57.9°F14.4°C 60.5°F15.8°C 87% Calm Calm -- 29.83 in1010.2 mb 0.00 in0.0 mm 0.00 in0.0 mm 0.00 in0.0 mm
05:08 AM 58.0°F14.4°C 60.5°F15.8°C 87% Calm Calm -- 29.84 in1010.5 mb 0.00 in0.0 mm 0.00 in0.0 mm 0.00 in0.0 mm
05:09 AM 57.9°F14.4°C 60.6°F15.9°C 87% 0.2 mph W0.3 kmh W 0.3 mph0.5 kmh 29.85 in1010.8 mb 0.00 in0.0 mm 0.00 in0.0 mm 0.00 in0.0 mm
05:11 AM 58.1°F14.5°C 60.7°F15.9°C 87% 1.6 mph WSW2.6 kmh WSW 1.6 mph2.6 kmh 29.85 in1010.8 mb 0.00 in0.0 mm 0.00 in0.0 mm 0.00 in0.0 mm
05:12 AM 58.1°F14.5°C 60.6°F15.9°C 87% 2.8 mph WSW4.5 kmh WSW 2.8 mph4.5 kmh 29.84 in1010.5 mb 0.00 in0.0 mm 0.00 in0.0 mm 0.00 in0.0 mm
05:14 AM 58.1°F14.5°C 60.7°F15.9°C 87% Calm Calm -- 29.85 in1010.8 mb 0.00 in0.0 mm 0.00 in0.0 mm 0.00 in0.0 mm
05:15 AM 57.8°F14.3°C 60.7°F15.9°C 87% Calm Calm -- 29.85 in1010.8 mb 0.00 in0.0 mm 0.00 in0.0 mm 0.00 in0.0 mm
05:17 AM 58.2°F14.6°C 61.0°F16.1°C 87% 0.4 mph W0.6 kmh W 0.4 mph0.6 kmh 29.85 in1010.8 mb 0.00 in0.0 mm 0.00 in0.0 mm 0.00 in0.0 mm
05:18 AM 58.1°F14.5°C 60.7°F15.9°C 87% 0.9 mph WSW1.4 kmh WSW 0.9 mph1.4 kmh 29.85 in1010.8 mb 0.00 in0.0 mm 0.00 in0.0 mm 0.00 in0.0 mm
05:20 AM 58.2°F14.6°C 60.7°F15.9°C 87% Calm Calm -- 29.85 in1010.8 mb 0.00 in0.0 mm 0.00 in0.0 mm 0.00 in0.0 mm
05:21 AM 58.1°F14.5°C 60.8°F16.0°C 87% 0.7 mph WSW1.1 kmh WSW 0.8 mph1.3 kmh 29.85 in1010.8 mb 0.00 in0.0 mm 0.00 in0.0 mm 0.00 in0.0 mm
05:23 AM 58.1°F14.5°C 60.8°F16.0°C 88% Calm Calm -- 29.85 in1010.8 mb 0.00 in0.0 mm 0.00 in0.0 mm 0.00 in0.0 mm
05:24 AM 57.8°F14.3°C 60.6°F15.9°C 87% 0.2 mph WNW0.3 kmh WNW 0.3 mph0.5 kmh 29.85 in1010.8 mb 0.00 in0.0 mm 0.00 in0.0 mm 0.00 in0.0 mm
05:26 AM 58.2°F14.6°C 61.1°F16.2°C 87% 2.8 mph NW4.5 kmh NW 2.9 mph4.7 kmh 29.85 in1010.8 mb 0.00 in0.0 mm 0.00 in0.0 mm 0.00 in0.0 mm
05:27 AM 58.2°F14.6°C 60.7°F15.9°C 87% 2.3 mph NW3.7 kmh NW 2.3 mph3.7 kmh 29.85 in1010.8 mb 0.00 in0.0 mm 0.00 in0.0 mm 0.00 in0.0 mm
05:29 AM 58.3°F14.6°C 61.1°F16.2°C 87% Calm Calm -- 29.85 in1010.8 mb 0.00 in0.0 mm 0.00 in0.0 mm 0.00 in0.0 mm
05:30 AM 58.1°F14.5°C 60.6°F15.9°C 87% Calm Calm -- 29.85 in1010.8 mb 0.00 in0.0 mm 0.00 in0.0 mm 0.00 in0.0 mm
05:32 AM 58.3°F14.6°C 60.7°F15.9°C 87% Calm Calm -- 29.85 in1010.8 mb 0.00 in0.0 mm 0.00 in0.0 mm 0.00 in0.0 mm
05:33 AM 58.2°F14.6°C 60.9°F16.1°C 87% Calm Calm -- 29.85 in1010.8 mb 0.00 in0.0 mm 0.00 in0.0 mm 0.00 in0.0 mm
05:35 AM 58.3°F14.6°C 60.9°F16.1°C 88% 0.8 mph NW1.3 kmh NW 0.8 mph1.3 kmh 29.85 in1010.8 mb 0.00 in0.0 mm 0.00 in0.0 mm 0.00 in0.0 mm
05:36 AM 58.0°F14.4°C 61.1°F16.2°C 88% 0.9 mph NW1.4 kmh NW 0.9 mph1.4 kmh 29.85 in1010.8 mb 0.00 in0.0 mm 0.00 in0.0 mm 0.00 in0.0 mm
05:38 AM 58.6°F14.8°C 61.0°F16.1°C 87% 2.4 mph NW3.9 kmh NW 2.4 mph3.9 kmh 29.85 in1010.8 mb 0.00 in0.0 mm 0.00 in0.0 mm 0.00 in0.0 mm
05:39 AM 58.4°F14.7°C 61.1°F16.2°C 88% 3.3 mph NW5.3 kmh NW 3.3 mph5.3 kmh 29.85 in1010.8 mb 0.00 in0.0 mm 0.00 in0.0 mm 0.00 in0.0 mm
05:41 AM 58.6°F14.8°C 61.5°F16.4°C 89% 1.6 mph NNW2.6 kmh NNW 1.6 mph2.6 kmh 29.85 in1010.8 mb 0.00 in0.0 mm 0.00 in0.0 mm 0.00 in0.0 mm
05:42 AM 58.2°F14.6°C 61.1°F16.2°C 88% Calm Calm -- 29.85 in1010.8 mb 0.00 in0.0 mm 0.00 in0.0 mm 0.00 in0.0 mm
05:44 AM 58.6°F14.8°C 61.3°F16.3°C 88% Calm Calm -- 29.85 in1010.8 mb 0.00 in0.0 mm 0.00 in0.0 mm 0.00 in0.0 mm
05:45 AM 58.1°F14.5°C 61.2°F16.2°C 88% Calm Calm -- 29.85 in1010.8 mb 0.00 in0.0 mm 0.00 in0.0 mm 0.00 in0.0 mm
05:50 AM 58.7°F14.8°C 61.2°F16.2°C 88% 0.8 mph NW1.3 kmh NW 0.8 mph1.3 kmh 29.85 in1010.8 mb 0.00 in0.0 mm 0.00 in0.0 mm 0.00 in0.0 mm
05:51 AM 58.2°F14.6°C 61.1°F16.2°C 87% 0.9 mph WNW1.4 kmh WNW 0.9 mph1.4 kmh 29.85 in1010.8 mb 0.00 in0.0 mm 0.00 in0.0 mm 0.00 in0.0 mm
05:53 AM 58.7°F14.8°C 61.5°F16.4°C 89% 4.1 mph NNW6.6 kmh NNW 4.1 mph6.6 kmh 29.86 in1011.2 mb 0.00 in0.0 mm 0.00 in0.0 mm 0.00 in0.0 mm
05:54 AM 58.3°F14.6°C 61.3°F16.3°C 88% 4.2 mph NNW6.8 kmh NNW 4.4 mph7.1 kmh 29.85 in1010.8 mb 0.00 in0.0 mm 0.00 in0.0 mm 0.00 in0.0 mm
05:56 AM 58.4°F14.7°C 61.3°F16.3°C 88% 2.0 mph NNW3.2 kmh NNW 2.0 mph3.2 kmh 29.85 in1010.8 mb 0.00 in0.0 mm 0.00 in0.0 mm 0.00 in0.0 mm
05:57 AM 58.3°F14.6°C 61.3°F16.3°C 88% 1.2 mph WNW1.9 kmh WNW 1.2 mph1.9 kmh 29.86 in1011.2 mb 0.00 in0.0 mm 0.00 in0.0 mm 0.00 in0.0 mm
05:59 AM 58.6°F14.8°C 61.3°F16.3°C 88% 5.0 mph NNW8.0 kmh NNW 5.0 mph8.0 kmh 29.86 in1011.2 mb 0.00 in0.0 mm 0.00 in0.0 mm 0.00 in0.0 mm
06:00 AM 58.4°F14.7°C 61.0°F16.1°C 88% 6.0 mph NW9.7 kmh NW 6.1 mph9.8 kmh 29.86 in1011.2 mb 0.00 in0.0 mm 0.00 in0.0 mm 0.00 in0.0 mm
06:02 AM 58.4°F14.7°C 61.1°F16.2°C 88% 3.6 mph NW5.8 kmh NW 3.6 mph5.8 kmh 29.86 in1011.2 mb 0.00 in0.0 mm 0.00 in0.0 mm 0.00 in0.0 mm
06:03 AM 58.3°F14.6°C 61.1°F16.2°C 88% 3.8 mph WNW6.1 kmh WNW 3.8 mph6.1 kmh 29.86 in1011.2 mb 0.00 in0.0 mm 0.00 in0.0 mm 0.00 in0.0 mm
06:05 AM 58.2°F14.6°C 61.3°F16.3°C 88% 2.8 mph NW4.5 kmh NW 2.8 mph4.5 kmh 29.86 in1011.2 mb 0.00 in0.0 mm 0.00 in0.0 mm 0.00 in0.0 mm
06:06 AM 58.3°F14.6°C 60.9°F16.1°C 88% 2.3 mph NW3.7 kmh NW 2.4 mph3.9 kmh 29.86 in1011.2 mb 0.00 in0.0 mm 0.00 in0.0 mm 0.00 in0.0 mm
06:08 AM 58.3°F14.6°C 60.9°F16.1°C 88% Calm Calm -- 29.86 in1011.2 mb 0.00 in0.0 mm 0.00 in0.0 mm 0.00 in0.0 mm
06:09 AM 58.3°F14.6°C 60.9°F16.1°C 88% 0.5 mph WSW0.8 kmh WSW 0.5 mph0.8 kmh 29.86 in1011.2 mb 0.00 in0.0 mm 0.00 in0.0 mm 0.00 in0.0 mm
06:11 AM 58.3°F14.6°C 61.0°F16.1°C 88% 6.1 mph W9.8 kmh W 6.1 mph9.8 kmh 29.86 in1011.2 mb 0.00 in0.0 mm 0.00 in0.0 mm 0.00 in0.0 mm
06:14 AM 57.9°F14.4°C 60.6°F15.9°C 87% 1.1 mph NNW1.8 kmh NNW 1.2 mph1.9 kmh 29.86 in1011.2 mb 0.00 in0.0 mm 0.00 in0.0 mm 0.00 in0.0 mm
06:15 AM 58.0°F14.4°C 60.9°F16.1°C 87% 0.9 mph NW1.4 kmh NW 0.9 mph1.4 kmh 29.86 in1011.2 mb 0.00 in0.0 mm 0.00 in0.0 mm 0.00 in0.0 mm
06:17 AM 58.1°F14.5°C 60.7°F15.9°C 87% 2.8 mph NNW4.5 kmh NNW 2.8 mph4.5 kmh 29.86 in1011.2 mb 0.00 in0.0 mm 0.00 in0.0 mm 0.00 in0.0 mm
06:18 AM 57.9°F14.4°C 60.5°F15.8°C 86% 2.9 mph NNW4.7 kmh NNW 3.0 mph4.8 kmh 29.86 in1011.2 mb 0.00 in0.0 mm 0.00 in0.0 mm 0.00 in0.0 mm
06:20 AM 58.2°F14.6°C 60.3°F15.7°C 87% 2.0 mph WNW3.2 kmh WNW 2.0 mph3.2 kmh 29.86 in1011.2 mb 0.00 in0.0 mm 0.00 in0.0 mm 0.00 in0.0 mm
06:21 AM 58.0°F14.4°C 60.6°F15.9°C 87% 4.7 mph NW7.6 kmh NW 4.7 mph7.6 kmh 29.86 in1011.2 mb 0.00 in0.0 mm 0.00 in0.0 mm 0.00 in0.0 mm
06:23 AM 58.3°F14.6°C 60.7°F15.9°C 87% 1.6 mph 2.6 kmh 1.6 mph2.6 kmh 29.86 in1011.2 mb 0.00 in0.0 mm 0.00 in0.0 mm 0.00 in0.0 mm
06:24 AM 58.2°F14.6°C 60.6°F15.9°C 87% 2.3 mph NW3.7 kmh NW 2.3 mph3.7 kmh 29.86 in1011.2 mb 0.00 in0.0 mm 0.00 in0.0 mm 0.00 in0.0 mm
06:26 AM 58.2°F14.6°C 60.7°F15.9°C 87% 3.2 mph NNW5.1 kmh NNW 3.2 mph5.1 kmh 29.86 in1011.2 mb 0.00 in0.0 mm 0.00 in0.0 mm 0.00 in0.0 mm
06:27 AM 58.1°F14.5°C 60.5°F15.8°C 87% 2.6 mph NW4.2 kmh NW 2.7 mph4.3 kmh 29.86 in1011.2 mb 0.00 in0.0 mm 0.00 in0.0 mm 0.00 in0.0 mm
06:29 AM 58.2°F14.6°C 60.3°F15.7°C 86% 2.4 mph NW3.9 kmh NW 2.4 mph3.9 kmh 29.86 in1011.2 mb 0.00 in0.0 mm 0.00 in0.0 mm 0.00 in0.0 mm
06:30 AM 58.2°F14.6°C 60.7°F15.9°C 87% 1.7 mph NW2.7 kmh NW 1.7 mph2.7 kmh 29.86 in1011.2 mb 0.00 in0.0 mm 0.00 in0.0 mm 0.00 in0.0 mm
06:32 AM 58.4°F14.7°C 60.5°F15.8°C 87% 2.4 mph NNW3.9 kmh NNW 2.4 mph3.9 kmh 29.86 in1011.2 mb 0.00 in0.0 mm 0.00 in0.0 mm 0.00 in0.0 mm
06:33 AM 58.2°F14.6°C 60.7°F15.9°C 87% 4.5 mph NNW7.2 kmh NNW 4.6 mph7.4 kmh 29.86 in1011.2 mb 0.00 in0.0 mm 0.00 in0.0 mm 0.00 in0.0 mm
06:35 AM 58.6°F14.8°C 60.5°F15.8°C 86% 2.8 mph NW4.5 kmh NW 2.9 mph4.7 kmh 29.86 in1011.2 mb 0.00 in0.0 mm 0.00 in0.0 mm 0.00 in0.0 mm
06:36 AM 58.4°F14.7°C 60.6°F15.9°C 86% 4.2 mph NNW6.8 kmh NNW 4.4 mph7.1 kmh 29.86 in1011.2 mb 0.00 in0.0 mm 0.00 in0.0 mm 0.00 in0.0 mm
06:38 AM 58.4°F14.7°C 60.7°F15.9°C 87% 4.6 mph NW7.4 kmh NW 4.7 mph7.6 kmh 29.87 in1011.5 mb 0.00 in0.0 mm 0.00 in0.0 mm 0.00 in0.0 mm
06:39 AM 58.1°F14.5°C 60.7°F15.9°C 86% 3.9 mph NW6.3 kmh NW 3.9 mph6.3 kmh 29.87 in1011.5 mb 0.00 in0.0 mm 0.00 in0.0 mm 0.00 in0.0 mm
06:41 AM 58.6°F14.8°C 60.7°F15.9°C 86% 2.4 mph WNW3.9 kmh WNW 2.4 mph3.9 kmh 29.87 in1011.5 mb 0.00 in0.0 mm 0.00 in0.0 mm 0.00 in0.0 mm
06:42 AM 58.3°F14.6°C 60.5°F15.8°C 86% 2.9 mph NW4.7 kmh NW 2.9 mph4.7 kmh 29.86 in1011.2 mb 0.00 in0.0 mm 0.00 in0.0 mm 0.00 in0.0 mm
06:44 AM 58.6°F14.8°C 60.5°F15.8°C 86% 3.8 mph NNW6.1 kmh NNW 4.1 mph6.6 kmh 29.86 in1011.2 mb 0.00 in0.0 mm 0.00 in0.0 mm 0.00 in0.0 mm
06:45 AM 58.6°F14.8°C 60.5°F15.8°C 86% 3.7 mph 6.0 kmh 3.8 mph6.1 kmh 29.87 in1011.5 mb 0.00 in0.0 mm 0.00 in0.0 mm 0.00 in0.0 mm
06:47 AM 58.6°F14.8°C 60.5°F15.8°C 86% 3.6 mph NW5.8 kmh NW 3.7 mph6.0 kmh 29.87 in1011.5 mb 0.00 in0.0 mm 0.00 in0.0 mm 0.00 in0.0 mm
06:48 AM 58.3°F14.6°C 60.8°F16.0°C 87% 4.6 mph NW7.4 kmh NW 4.6 mph7.4 kmh 29.87 in1011.5 mb 0.00 in0.0 mm 0.00 in0.0 mm 0.00 in0.0 mm
06:50 AM 58.8°F14.9°C 60.6°F15.9°C 87% 2.4 mph NW3.9 kmh NW 2.4 mph3.9 kmh 29.87 in1011.5 mb 0.00 in0.0 mm 0.00 in0.0 mm 0.00 in0.0 mm
06:51 AM 58.8°F14.9°C 60.6°F15.9°C 86% 2.6 mph W4.2 kmh W 2.6 mph4.2 kmh 29.87 in1011.5 mb 0.00 in0.0 mm 0.00 in0.0 mm 0.00 in0.0 mm
06:53 AM 58.9°F14.9°C 60.5°F15.8°C 86% 1.6 mph NW2.6 kmh NW 1.6 mph2.6 kmh 29.87 in1011.5 mb 0.00 in0.0 mm 0.00 in0.0 mm 0.00 in0.0 mm
06:54 AM 58.7°F14.8°C 60.6°F15.9°C 86% 0.9 mph NNW1.4 kmh NNW 1.0 mph1.6 kmh 29.86 in1011.2 mb 0.00 in0.0 mm 0.00 in0.0 mm 0.00 in0.0 mm
06:56 AM 59.2°F15.1°C 60.6°F15.9°C 86% 0.8 mph 1.3 kmh 0.8 mph1.3 kmh 29.86 in1011.2 mb 0.00 in0.0 mm 0.00 in0.0 mm 0.00 in0.0 mm
06:57 AM 58.9°F14.9°C 60.7°F15.9°C 86% 0.9 mph 1.4 kmh 0.9 mph1.4 kmh 29.86 in1011.2 mb 0.00 in0.0 mm 0.00 in0.0 mm 0.00 in0.0 mm
06:59 AM 59.0°F15.0°C 60.9°F16.1°C 86% 0.8 mph NW1.3 kmh NW 0.8 mph1.3 kmh 29.85 in1010.8 mb 0.00 in0.0 mm 0.00 in0.0 mm 0.00 in0.0 mm
07:00 AM 59.0°F15.0°C 61.0°F16.1°C 86% 1.3 mph NW2.1 kmh NW 1.4 mph2.3 kmh 29.86 in1011.2 mb 0.00 in0.0 mm 0.00 in0.0 mm 0.00 in0.0 mm
07:02 AM 59.6°F15.3°C 60.9°F16.1°C 86% 4.5 mph WNW7.2 kmh WNW 4.5 mph7.2 kmh 29.85 in1010.8 mb 0.00 in0.0 mm 0.00 in0.0 mm 0.00 in0.0 mm
07:03 AM 59.5°F15.3°C 60.8°F16.0°C 86% 4.2 mph NW6.8 kmh NW 4.2 mph6.8 kmh 29.85 in1010.8 mb 0.00 in0.0 mm 0.00 in0.0 mm 0.00 in0.0 mm
07:05 AM 59.2°F15.1°C 61.0°F16.1°C 87% 4.4 mph 7.1 kmh 4.4 mph7.1 kmh 29.85 in1010.8 mb 0.00 in0.0 mm 0.00 in0.0 mm 0.00 in0.0 mm
07:06 AM 59.6°F15.3°C 60.9°F16.1°C 86% 3.8 mph 6.1 kmh 3.8 mph6.1 kmh 29.85 in1010.8 mb 0.00 in0.0 mm 0.00 in0.0 mm 0.00 in0.0 mm
07:08 AM 59.6°F15.3°C 61.0°F16.1°C 86% 2.0 mph 3.2 kmh 2.0 mph3.2 kmh 29.85 in1010.8 mb 0.00 in0.0 mm 0.00 in0.0 mm 0.00 in0.0 mm
07:09 AM 59.7°F15.4°C 61.1°F16.2°C 86% 2.2 mph 3.5 kmh 2.2 mph3.5 kmh 29.85 in1010.8 mb 0.00 in0.0 mm 0.00 in0.0 mm 0.00 in0.0 mm
07:11 AM 59.8°F15.4°C 60.7°F15.9°C 86% 0.8 mph NNW1.3 kmh NNW 0.8 mph1.3 kmh 29.85 in1010.8 mb 0.00 in0.0 mm 0.00 in0.0 mm 0.00 in0.0 mm
07:12 AM 60.0°F15.6°C 60.9°F16.1°C 86% 0.9 mph NNW1.4 kmh NNW 1.0 mph1.6 kmh 29.85 in1010.8 mb 0.00 in0.0 mm 0.00 in0.0 mm 0.00 in0.0 mm
07:14 AM 59.8°F15.4°C 60.9°F16.1°C 86% 1.2 mph 1.9 kmh 1.2 mph1.9 kmh 29.85 in1010.8 mb 0.00 in0.0 mm 0.00 in0.0 mm 0.00 in0.0 mm
07:15 AM 59.8°F15.4°C 61.2°F16.2°C 86% 1.6 mph NNW2.6 kmh NNW 1.6 mph2.6 kmh 29.85 in1010.8 mb 0.00 in0.0 mm 0.00 in0.0 mm 0.00 in0.0 mm
07:17 AM 59.7°F15.4°C 61.0°F16.1°C 85% Calm Calm -- 29.85 in1010.8 mb 0.00 in0.0 mm 0.00 in0.0 mm 0.00 in0.0 mm
07:18 AM 59.8°F15.4°C 61.0°F16.1°C 85% Calm Calm -- 29.85 in1010.8 mb 0.00 in0.0 mm 0.00 in0.0 mm 0.00 in0.0 mm
07:20 AM 60.8°F16.0°C 61.1°F16.2°C 85% Calm Calm -- 29.85 in1010.8 mb 0.00 in0.0 mm 0.00 in0.0 mm 0.00 in0.0 mm
07:21 AM 61.0°F16.1°C 61.2°F16.2°C 85% Calm Calm -- 29.85 in1010.8 mb 0.00 in0.0 mm 0.00 in0.0 mm 0.00 in0.0 mm
07:23 AM 61.3°F16.3°C 61.5°F16.4°C 86% Calm Calm -- 29.85 in1010.8 mb 0.00 in0.0 mm 0.00 in0.0 mm 0.00 in0.0 mm
07:24 AM 61.3°F16.3°C 61.0°F16.1°C 85% Calm Calm -- 29.85 in1010.8 mb 0.00 in0.0 mm 0.00 in0.0 mm 0.00 in0.0 mm
07:26 AM 60.9°F16.1°C 61.6°F16.4°C 85% 1.6 mph NNW2.6 kmh NNW 1.6 mph2.6 kmh 29.84 in1010.5 mb 0.00 in0.0 mm 0.00 in0.0 mm 0.00 in0.0 mm
07:27 AM 60.9°F16.1°C 61.3°F16.3°C 85% 1.6 mph NNW2.6 kmh NNW 1.6 mph2.6 kmh 29.84 in1010.5 mb 0.00 in0.0 mm 0.00 in0.0 mm 0.00 in0.0 mm
07:29 AM 61.4°F16.3°C 61.4°F16.3°C 85% 2.3 mph NW3.7 kmh NW 2.4 mph3.9 kmh 29.84 in1010.5 mb 0.00 in0.0 mm 0.00 in0.0 mm 0.00 in0.0 mm
07:32 AM 61.1°F16.2°C 61.2°F16.2°C 84% 0.4 mph NNW0.6 kmh NNW 0.4 mph0.6 kmh 29.84 in1010.5 mb 0.00 in0.0 mm 0.00 in0.0 mm 0.00 in0.0 mm
07:33 AM 61.3°F16.3°C 61.1°F16.2°C 84% 0.3 mph NNW0.5 kmh NNW 0.3 mph0.5 kmh 29.84 in1010.5 mb 0.00 in0.0 mm 0.00 in0.0 mm 0.00 in0.0 mm
07:35 AM 61.6°F16.4°C 61.5°F16.4°C 84% Calm Calm -- 29.84 in1010.5 mb 0.00 in0.0 mm 0.00 in0.0 mm 0.00 in0.0 mm
07:36 AM 61.5°F16.4°C 61.3°F16.3°C 84% Calm Calm -- 29.83 in1010.2 mb 0.00 in0.0 mm 0.00 in0.0 mm 0.00 in0.0 mm
07:38 AM 61.8°F16.6°C 61.4°F16.3°C 84% Calm Calm -- 29.83 in1010.2 mb 0.00 in0.0 mm 0.00 in0.0 mm 0.00 in0.0 mm
07:39 AM 61.8°F16.6°C 61.5°F16.4°C 84% 0.3 mph 0.5 kmh 0.3 mph0.5 kmh 29.83 in1010.2 mb 0.00 in0.0 mm 0.00 in0.0 mm 0.00 in0.0 mm
07:41 AM 62.3°F16.8°C 61.8°F16.6°C 84% 0.8 mph NNW1.3 kmh NNW 0.8 mph1.3 kmh 29.83 in1010.2 mb 0.00 in0.0 mm 0.00 in0.0 mm 0.00 in0.0 mm
07:42 AM 62.2°F16.8°C 62.0°F16.7°C 84% 0.9 mph NNW1.4 kmh NNW 1.1 mph1.8 kmh 29.84 in1010.5 mb 0.00 in0.0 mm 0.00 in0.0 mm 0.00 in0.0 mm
07:44 AM 62.3°F16.8°C 61.1°F16.2°C 82% 0.8 mph NNW1.3 kmh NNW 0.8 mph1.3 kmh 29.83 in1010.2 mb 0.00 in0.0 mm 0.00 in0.0 mm 0.00 in0.0 mm
07:45 AM 62.5°F16.9°C 61.6°F16.4°C 83% 0.9 mph 1.4 kmh 0.9 mph1.4 kmh 29.83 in1010.2 mb 0.00 in0.0 mm 0.00 in0.0 mm 0.00 in0.0 mm
07:47 AM 62.7°F17.1°C 61.5°F16.4°C 83% Calm Calm -- 29.83 in1010.2 mb 0.00 in0.0 mm 0.00 in0.0 mm 0.00 in0.0 mm
07:48 AM 62.9°F17.2°C 61.7°F16.5°C 82% 0.2 mph NW0.3 kmh NW 0.3 mph0.5 kmh 29.83 in1010.2 mb 0.00 in0.0 mm 0.00 in0.0 mm 0.00 in0.0 mm
07:50 AM 62.9°F17.2°C 62.0°F16.7°C 83% Calm Calm -- 29.83 in1010.2 mb 0.00 in0.0 mm 0.00 in0.0 mm 0.00 in0.0 mm
07:51 AM 63.4°F17.4°C 62.1°F16.7°C 83% Calm Calm -- 29.83 in1010.2 mb 0.00 in0.0 mm 0.00 in0.0 mm 0.00 in0.0 mm
07:53 AM 63.7°F17.6°C 62.1°F16.7°C 83% 1.6 mph NNW2.6 kmh NNW 1.6 mph2.6 kmh 29.84 in1010.5 mb 0.00 in0.0 mm 0.00 in0.0 mm 0.00 in0.0 mm
07:54 AM 63.7°F17.6°C 62.0°F16.7°C 83% 0.9 mph NNW1.4 kmh NNW 1.0 mph1.6 kmh 29.83 in1010.2 mb 0.00 in0.0 mm 0.00 in0.0 mm 0.00 in0.0 mm
07:56 AM 64.3°F17.9°C 62.4°F16.9°C 83% 1.2 mph W1.9 kmh W 1.2 mph1.9 kmh 29.85 in1010.8 mb 0.00 in0.0 mm 0.00 in0.0 mm 0.00 in0.0 mm
07:57 AM 64.3°F17.9°C 62.5°F16.9°C 83% 1.2 mph W1.9 kmh W 1.2 mph1.9 kmh 29.85 in1010.8 mb 0.00 in0.0 mm 0.00 in0.0 mm 0.00 in0.0 mm
07:59 AM 63.5°F17.5°C 62.3°F16.8°C 83% 0.4 mph WSW0.6 kmh WSW 0.4 mph0.6 kmh 29.83 in1010.2 mb 0.00 in0.0 mm 0.00 in0.0 mm 0.00 in0.0 mm
08:00 AM 63.6°F17.6°C 62.5°F16.9°C 83% 0.7 mph WSW1.1 kmh WSW 0.7 mph1.1 kmh 29.84 in1010.5 mb 0.00 in0.0 mm 0.00 in0.0 mm 0.00 in0.0 mm
08:02 AM 63.8°F17.7°C 62.5°F16.9°C 83% 1.5 mph WSW2.4 kmh WSW 1.5 mph2.4 kmh 29.83 in1010.2 mb 0.00 in0.0 mm 0.00 in0.0 mm 0.00 in0.0 mm
08:03 AM 64.1°F17.8°C 62.6°F17.0°C 83% 1.2 mph WSW1.9 kmh WSW 1.2 mph1.9 kmh 29.83 in1010.2 mb 0.00 in0.0 mm 0.00 in0.0 mm 0.00 in0.0 mm
08:05 AM 64.4°F18.0°C 63.0°F17.2°C 83% 2.4 mph W3.9 kmh W 2.4 mph3.9 kmh 29.83 in1010.2 mb 0.00 in0.0 mm 0.00 in0.0 mm 0.00 in0.0 mm
08:06 AM 64.5°F18.1°C 63.1°F17.3°C 83% 2.7 mph W4.3 kmh W 2.7 mph4.3 kmh 29.83 in1010.2 mb 0.00 in0.0 mm 0.00 in0.0 mm 0.00 in0.0 mm
08:08 AM 65.2°F18.4°C 62.9°F17.2°C 83% Calm Calm -- 29.83 in1010.2 mb 0.00 in0.0 mm 0.00 in0.0 mm 0.00 in0.0 mm
08:09 AM 65.5°F18.6°C 63.0°F17.2°C 82% Calm Calm -- 29.83 in1010.2 mb 0.00 in0.0 mm 0.00 in0.0 mm 0.00 in0.0 mm
08:11 AM 66.1°F18.9°C 62.9°F17.2°C 83% 3.6 mph W5.8 kmh W 3.7 mph6.0 kmh 29.83 in1010.2 mb 0.00 in0.0 mm 0.00 in0.0 mm 0.00 in0.0 mm
08:12 AM 66.1°F18.9°C 63.1°F17.3°C 83% 2.9 mph W4.7 kmh W 2.9 mph4.7 kmh 29.83 in1010.2 mb 0.00 in0.0 mm 0.00 in0.0 mm 0.00 in0.0 mm
08:14 AM 64.5°F18.1°C 62.8°F17.1°C 81% 1.6 mph NNW2.6 kmh NNW 1.6 mph2.6 kmh 29.83 in1010.2 mb 0.00 in0.0 mm 0.00 in0.0 mm 0.00 in0.0 mm
08:15 AM 64.5°F18.1°C 62.9°F17.2°C 81% 1.0 mph NE1.6 kmh NE 1.0 mph1.6 kmh 29.83 in1010.2 mb 0.00 in0.0 mm 0.00 in0.0 mm 0.00 in0.0 mm
08:17 AM 63.1°F17.3°C 62.4°F16.9°C 80% 2.0 mph NE3.2 kmh NE 2.0 mph3.2 kmh 29.83 in1010.2 mb 0.00 in0.0 mm 0.00 in0.0 mm 0.00 in0.0 mm
08:18 AM 63.3°F17.4°C 62.6°F17.0°C 80% 2.3 mph NE3.7 kmh NE 2.5 mph4.0 kmh 29.83 in1010.2 mb 0.00 in0.0 mm 0.00 in0.0 mm 0.00 in0.0 mm
08:20 AM 62.9°F17.2°C 62.0°F16.7°C 79% 1.2 mph NE1.9 kmh NE 1.2 mph1.9 kmh 29.83 in1010.2 mb 0.00 in0.0 mm 0.00 in0.0 mm 0.00 in0.0 mm
08:21 AM 62.9°F17.2°C 62.3°F16.8°C 79% 1.6 mph NE2.6 kmh NE 1.6 mph2.6 kmh 29.83 in1010.2 mb 0.00 in0.0 mm 0.00 in0.0 mm 0.00 in0.0 mm
08:23 AM 63.8°F17.7°C 62.4°F16.9°C 79% 0.4 mph NE0.6 kmh NE 0.4 mph0.6 kmh 29.83 in1010.2 mb 0.00 in0.0 mm 0.00 in0.0 mm 0.00 in0.0 mm
08:24 AM 63.8°F17.7°C 62.6°F17.0°C 80% 0.7 mph NE1.1 kmh NE 0.8 mph1.3 kmh 29.83 in1010.2 mb 0.00 in0.0 mm 0.00 in0.0 mm 0.00 in0.0 mm
08:26 AM 65.1°F18.4°C 62.8°F17.1°C 80% 0.8 mph NNW1.3 kmh NNW 0.8 mph1.3 kmh 29.83 in1010.2 mb 0.00 in0.0 mm 0.00 in0.0 mm 0.00 in0.0 mm
08:27 AM 65.3°F18.5°C 62.4°F16.9°C 80% 1.3 mph NNW2.1 kmh NNW 1.5 mph2.4 kmh 29.83 in1010.2 mb 0.00 in0.0 mm 0.00 in0.0 mm 0.00 in0.0 mm
08:29 AM 64.9°F18.3°C 62.8°F17.1°C 80% 1.6 mph SE2.6 kmh SE 1.6 mph2.6 kmh 29.83 in1010.2 mb 0.00 in0.0 mm 0.00 in0.0 mm 0.00 in0.0 mm
08:30 AM 64.7°F18.2°C 63.0°F17.2°C 80% 2.1 mph SE3.4 kmh SE 2.1 mph3.4 kmh 29.83 in1010.2 mb 0.00 in0.0 mm 0.00 in0.0 mm 0.00 in0.0 mm
08:32 AM 64.4°F18.0°C 62.7°F17.1°C 79% 1.2 mph ESE1.9 kmh ESE 1.2 mph1.9 kmh 29.83 in1010.2 mb 0.00 in0.0 mm 0.00 in0.0 mm 0.00 in0.0 mm
08:33 AM 64.4°F18.0°C 62.6°F17.0°C 79% 1.0 mph ESE1.6 kmh ESE 1.0 mph1.6 kmh 29.83 in1010.2 mb 0.00 in0.0 mm 0.00 in0.0 mm 0.00 in0.0 mm
08:35 AM 63.7°F17.6°C 62.3°F16.8°C 79% Calm Calm -- 29.83 in1010.2 mb 0.00 in0.0 mm 0.00 in0.0 mm 0.00 in0.0 mm
08:36 AM 63.8°F17.7°C 62.4°F16.9°C 79% 0.2 mph SE0.3 kmh SE 0.2 mph0.3 kmh 29.82 in1009.8 mb 0.00 in0.0 mm 0.00 in0.0 mm 0.00 in0.0 mm
08:38 AM 64.1°F17.8°C 62.7°F17.1°C 79% Calm Calm -- 29.82 in1009.8 mb 0.00 in0.0 mm 0.00 in0.0 mm 0.00 in0.0 mm
08:39 AM 64.1°F17.8°C 62.5°F16.9°C 79% Calm Calm -- 29.82 in1009.8 mb 0.00 in0.0 mm 0.00 in0.0 mm 0.00 in0.0 mm
08:41 AM 63.8°F17.7°C 62.4°F16.9°C 78% Calm Calm -- 29.82 in1009.8 mb 0.00 in0.0 mm 0.00 in0.0 mm 0.00 in0.0 mm
08:42 AM 63.8°F17.7°C 62.5°F16.9°C 78% Calm Calm -- 29.82 in1009.8 mb 0.00 in0.0 mm 0.00 in0.0 mm 0.00 in0.0 mm
08:44 AM 64.2°F17.9°C 62.5°F16.9°C 79% Calm Calm -- 29.81 in1009.5 mb 0.00 in0.0 mm 0.00 in0.0 mm 0.00 in0.0 mm
08:45 AM 64.2°F17.9°C 62.6°F17.0°C 79% Calm Calm -- 29.82 in1009.8 mb 0.00 in0.0 mm 0.00 in0.0 mm 0.00 in0.0 mm
08:47 AM 64.3°F17.9°C 62.5°F16.9°C 78% 2.8 mph SE4.5 kmh SE 2.9 mph4.7 kmh 29.82 in1009.8 mb 0.00 in0.0 mm 0.00 in0.0 mm 0.00 in0.0 mm
08:48 AM 64.3°F17.9°C 62.7°F17.1°C 78% 1.9 mph SE3.1 kmh SE 1.9 mph3.1 kmh 29.82 in1009.8 mb 0.00 in0.0 mm 0.00 in0.0 mm 0.00 in0.0 mm
08:50 AM 64.4°F18.0°C 63.0°F17.2°C 79% 0.4 mph SE0.6 kmh SE 0.4 mph0.6 kmh 29.82 in1009.8 mb 0.00 in0.0 mm 0.00 in0.0 mm 0.00 in0.0 mm
08:51 AM 64.4°F18.0°C 63.0°F17.2°C 79% Calm Calm -- 29.82 in1009.8 mb 0.00 in0.0 mm 0.00 in0.0 mm 0.00 in0.0 mm
08:53 AM 65.0°F18.3°C 63.7°F17.6°C 80% 1.6 mph SE2.6 kmh SE 1.6 mph2.6 kmh 29.81 in1009.5 mb 0.00 in0.0 mm 0.00 in0.0 mm 0.00 in0.0 mm
08:54 AM 65.0°F18.3°C 63.5°F17.5°C 81% 2.0 mph SE3.2 kmh SE 2.0 mph3.2 kmh 29.81 in1009.5 mb 0.00 in0.0 mm 0.00 in0.0 mm 0.00 in0.0 mm
08:56 AM 64.9°F18.3°C 63.0°F17.2°C 79% 0.8 mph SE1.3 kmh SE 0.8 mph1.3 kmh 29.82 in1009.8 mb 0.00 in0.0 mm 0.00 in0.0 mm 0.00 in0.0 mm
08:57 AM 64.9°F18.3°C 63.2°F17.3°C 79% 1.1 mph SE1.8 kmh SE 1.2 mph1.9 kmh 29.82 in1009.8 mb 0.00 in0.0 mm 0.00 in0.0 mm 0.00 in0.0 mm
08:59 AM 64.9°F18.3°C 63.2°F17.3°C 79% 1.1 mph SSW1.8 kmh SSW 1.1 mph1.8 kmh 29.82 in1009.8 mb 0.00 in0.0 mm 0.00 in0.0 mm 0.00 in0.0 mm
09:00 AM 64.9°F18.3°C 63.3°F17.4°C 80% 1.1 mph S1.8 kmh S 1.2 mph1.9 kmh 29.82 in1009.8 mb 0.00 in0.0 mm 0.00 in0.0 mm 0.00 in0.0 mm
09:02 AM 65.0°F18.3°C 64.0°F17.8°C 80% 0.8 mph NNW1.3 kmh NNW 0.8 mph1.3 kmh 29.82 in1009.8 mb 0.00 in0.0 mm 0.00 in0.0 mm 0.00 in0.0 mm
09:03 AM 65.0°F18.3°C 63.9°F17.7°C 80% 0.9 mph NNW1.4 kmh NNW 1.0 mph1.6 kmh 29.82 in1009.8 mb 0.00 in0.0 mm 0.00 in0.0 mm 0.00 in0.0 mm
09:05 AM 64.5°F18.1°C 63.4°F17.4°C 80% 1.6 mph S2.6 kmh S 1.6 mph2.6 kmh 29.82 in1009.8 mb 0.00 in0.0 mm 0.00 in0.0 mm 0.00 in0.0 mm
09:06 AM 65.0°F18.3°C 63.8°F17.7°C 80% 1.2 mph SSW1.9 kmh SSW 1.3 mph2.1 kmh 29.82 in1009.8 mb 0.00 in0.0 mm 0.00 in0.0 mm 0.00 in0.0 mm
09:08 AM 65.1°F18.4°C 63.9°F17.7°C 80% 1.2 mph SW1.9 kmh SW 1.2 mph1.9 kmh 29.82 in1009.8 mb 0.00 in0.0 mm 0.00 in0.0 mm 0.00 in0.0 mm
09:09 AM 65.2°F18.4°C 63.8°F17.7°C 79% 1.8 mph SW2.9 kmh SW 1.9 mph3.1 kmh 29.82 in1009.8 mb 0.00 in0.0 mm 0.00 in0.0 mm 0.00 in0.0 mm
09:11 AM 65.4°F18.6°C 63.3°F17.4°C 78% 1.6 mph S2.6 kmh S 1.6 mph2.6 kmh 29.82 in1009.8 mb 0.00 in0.0 mm 0.00 in0.0 mm 0.00 in0.0 mm
09:12 AM 65.4°F18.6°C 63.6°F17.6°C 78% 1.3 mph S2.1 kmh S 1.3 mph2.1 kmh 29.82 in1009.8 mb 0.00 in0.0 mm 0.00 in0.0 mm 0.00 in0.0 mm
09:14 AM 65.2°F18.4°C 63.4°F17.4°C 79% 0.4 mph S0.6 kmh S 0.4 mph0.6 kmh 29.82 in1009.8 mb 0.00 in0.0 mm 0.00 in0.0 mm 0.00 in0.0 mm
09:15 AM 65.3°F18.5°C 63.4°F17.4°C 79% 0.7 mph SSW1.1 kmh SSW 0.8 mph1.3 kmh 29.82 in1009.8 mb 0.00 in0.0 mm 0.00 in0.0 mm 0.00 in0.0 mm
09:17 AM 65.8°F18.8°C 63.8°F17.7°C 79% 1.2 mph SSW1.9 kmh SSW 1.2 mph1.9 kmh 29.82 in1009.8 mb 0.00 in0.0 mm 0.00 in0.0 mm 0.00 in0.0 mm
09:18 AM 65.9°F18.8°C 63.9°F17.7°C 79% 0.6 mph SSW1.0 kmh SSW 0.6 mph1.0 kmh 29.82 in1009.8 mb 0.00 in0.0 mm 0.00 in0.0 mm 0.00 in0.0 mm
09:20 AM 66.3°F19.1°C 64.1°F17.8°C 80% 1.6 mph S2.6 kmh S 1.6 mph2.6 kmh 29.82 in1009.8 mb 0.00 in0.0 mm 0.00 in0.0 mm 0.00 in0.0 mm
09:21 AM 66.3°F19.1°C 64.3°F17.9°C 80% 1.6 mph S2.6 kmh S 1.6 mph2.6 kmh 29.82 in1009.8 mb 0.00 in0.0 mm 0.00 in0.0 mm 0.00 in0.0 mm
09:23 AM 66.1°F18.9°C 64.3°F17.9°C 79% 2.4 mph NNW3.9 kmh NNW 2.4 mph3.9 kmh 29.82 in1009.8 mb 0.00 in0.0 mm 0.00 in0.0 mm 0.00 in0.0 mm
09:24 AM 66.0°F18.9°C 64.4°F18.0°C 79% 1.8 mph SSW2.9 kmh SSW 1.9 mph3.1 kmh 29.82 in1009.8 mb 0.00 in0.0 mm 0.00 in0.0 mm 0.00 in0.0 mm
09:26 AM 65.8°F18.8°C 63.7°F17.6°C 78% 2.8 mph SSW4.5 kmh SSW 2.8 mph4.5 kmh 29.83 in1010.2 mb 0.00 in0.0 mm 0.00 in0.0 mm 0.00 in0.0 mm
09:27 AM 65.9°F18.8°C 64.4°F18.0°C 79% 2.6 mph SSW4.2 kmh SSW 2.6 mph4.2 kmh 29.82 in1009.8 mb 0.00 in0.0 mm 0.00 in0.0 mm 0.00 in0.0 mm
09:29 AM 66.5°F19.2°C 64.7°F18.2°C 79% 4.5 mph SSW7.2 kmh SSW 4.5 mph7.2 kmh 29.83 in1010.2 mb 0.00 in0.0 mm 0.00 in0.0 mm 0.00 in0.0 mm
09:30 AM 66.5°F19.2°C 64.5°F18.1°C 79% 4.9 mph SW7.9 kmh SW 4.9 mph7.9 kmh 29.82 in1009.8 mb 0.00 in0.0 mm 0.00 in0.0 mm 0.00 in0.0 mm
09:32 AM 67.0°F19.4°C 64.4°F18.0°C 78% 0.4 mph SSW0.6 kmh SSW 0.4 mph0.6 kmh 29.83 in1010.2 mb 0.00 in0.0 mm 0.00 in0.0 mm 0.00 in0.0 mm
09:33 AM 67.0°F19.4°C 64.4°F18.0°C 78% 0.6 mph SSW1.0 kmh SSW 0.6 mph1.0 kmh 29.83 in1010.2 mb 0.00 in0.0 mm 0.00 in0.0 mm 0.00 in0.0 mm
09:35 AM 67.4°F19.7°C 64.6°F18.1°C 78% 3.6 mph NNW5.8 kmh NNW 3.7 mph6.0 kmh 29.83 in1010.2 mb 0.00 in0.0 mm 0.00 in0.0 mm 0.00 in0.0 mm
09:36 AM 67.7°F19.8°C 64.9°F18.3°C 79% 2.7 mph SSW4.3 kmh SSW 2.9 mph4.7 kmh 29.83 in1010.2 mb 0.00 in0.0 mm 0.00 in0.0 mm 0.00 in0.0 mm
09:38 AM 67.7°F19.8°C 64.9°F18.3°C 79% 1.2 mph S1.9 kmh S 1.2 mph1.9 kmh 29.83 in1010.2 mb 0.00 in0.0 mm 0.00 in0.0 mm 0.00 in0.0 mm
09:39 AM 67.8°F19.9°C 65.3°F18.5°C 79% 1.4 mph SSW2.3 kmh SSW 1.4 mph2.3 kmh 29.83 in1010.2 mb 0.00 in0.0 mm 0.00 in0.0 mm 0.00 in0.0 mm
09:41 AM 68.5°F20.3°C 65.8°F18.8°C 79% Calm Calm -- 29.83 in1010.2 mb 0.00 in0.0 mm 0.00 in0.0 mm 0.00 in0.0 mm
09:42 AM 68.3°F20.2°C 64.9°F18.3°C 79% 0.5 mph S0.8 kmh S 0.5 mph0.8 kmh 29.83 in1010.2 mb 0.00 in0.0 mm 0.00 in0.0 mm 0.00 in0.0 mm
09:44 AM 68.6°F20.3°C 65.0°F18.3°C 77% 3.6 mph SSW5.8 kmh SSW 3.7 mph6.0 kmh 29.83 in1010.2 mb 0.00 in0.0 mm 0.00 in0.0 mm 0.00 in0.0 mm
09:45 AM 68.8°F20.4°C 65.0°F18.3°C 77% 2.8 mph S4.5 kmh S 3.0 mph4.8 kmh 29.83 in1010.2 mb 0.00 in0.0 mm 0.00 in0.0 mm 0.00 in0.0 mm
09:47 AM 68.3°F20.2°C 65.0°F18.3°C 76% 5.7 mph WSW9.2 kmh WSW 5.7 mph9.2 kmh 29.83 in1010.2 mb 0.00 in0.0 mm 0.00 in0.0 mm 0.00 in0.0 mm
09:48 AM 68.5°F20.3°C 64.5°F18.1°C 76% 5.1 mph WSW8.2 kmh WSW 5.1 mph8.2 kmh 29.83 in1010.2 mb 0.00 in0.0 mm 0.00 in0.0 mm 0.00 in0.0 mm
09:50 AM 69.1°F20.6°C 65.5°F18.6°C 77% 2.8 mph SW4.5 kmh SW 2.9 mph4.7 kmh 29.83 in1010.2 mb 0.00 in0.0 mm 0.00 in0.0 mm 0.00 in0.0 mm
09:51 AM 69.1°F20.6°C 65.4°F18.6°C 77% 3.2 mph SW5.1 kmh SW 3.3 mph5.3 kmh 29.83 in1010.2 mb 0.00 in0.0 mm 0.00 in0.0 mm 0.00 in0.0 mm
09:53 AM 69.1°F20.6°C 65.3°F18.5°C 76% 2.0 mph S3.2 kmh S 2.0 mph3.2 kmh 29.83 in1010.2 mb 0.00 in0.0 mm 0.00 in0.0 mm 0.00 in0.0 mm
09:54 AM 69.1°F20.6°C 65.5°F18.6°C 76% 1.4 mph SSW2.3 kmh SSW 1.4 mph2.3 kmh 29.83 in1010.2 mb 0.00 in0.0 mm 0.00 in0.0 mm 0.00 in0.0 mm
09:56 AM 69.5°F20.8°C 65.7°F18.7°C 76% 1.6 mph SW2.6 kmh SW 1.6 mph2.6 kmh 29.83 in1010.2 mb 0.00 in0.0 mm 0.00 in0.0 mm 0.00 in0.0 mm
09:57 AM 69.6°F20.9°C 65.5°F18.6°C 76% 0.9 mph SW1.4 kmh SW 1.1 mph1.8 kmh 29.83 in1010.2 mb 0.00 in0.0 mm 0.00 in0.0 mm 0.00 in0.0 mm
09:59 AM 70.3°F21.3°C 65.7°F18.7°C 75% 1.9 mph NNW3.1 kmh NNW 2.0 mph3.2 kmh 29.83 in1010.2 mb 0.00 in0.0 mm 0.00 in0.0 mm 0.00 in0.0 mm
10:00 AM 70.4°F21.3°C 65.5°F18.6°C 75% 2.4 mph SE3.9 kmh SE 2.4 mph3.9 kmh 29.82 in1009.8 mb 0.00 in0.0 mm 0.00 in0.0 mm 0.00 in0.0 mm
10:02 AM 69.7°F20.9°C 65.8°F18.8°C 74% 1.6 mph NNW2.6 kmh NNW 1.6 mph2.6 kmh 29.83 in1010.2 mb 0.00 in0.0 mm 0.00 in0.0 mm 0.00 in0.0 mm
10:03 AM 69.7°F20.9°C 65.5°F18.6°C 74% 1.6 mph WSW2.6 kmh WSW 1.6 mph2.6 kmh 29.83 in1010.2 mb 0.00 in0.0 mm 0.00 in0.0 mm 0.00 in0.0 mm
10:05 AM 70.5°F21.4°C 66.4°F19.1°C 74% 2.8 mph W4.5 kmh W 2.8 mph4.5 kmh 29.83 in1010.2 mb 0.00 in0.0 mm 0.00 in0.0 mm 0.00 in0.0 mm
10:06 AM 70.5°F21.4°C 66.2°F19.0°C 74% 2.7 mph W4.3 kmh W 2.7 mph4.3 kmh 29.83 in1010.2 mb 0.00 in0.0 mm 0.00 in0.0 mm 0.00 in0.0 mm
10:08 AM 71.0°F21.7°C 66.5°F19.2°C 74% 0.4 mph W0.6 kmh W 0.4 mph0.6 kmh 29.83 in1010.2 mb 0.00 in0.0 mm 0.00 in0.0 mm 0.00 in0.0 mm
10:09 AM 71.0°F21.7°C 66.6°F19.2°C 74% 0.7 mph WSW1.1 kmh WSW 0.8 mph1.3 kmh 29.83 in1010.2 mb 0.00 in0.0 mm 0.00 in0.0 mm 0.00 in0.0 mm
10:11 AM 71.5°F21.9°C 67.1°F19.5°C 74% 1.2 mph SW1.9 kmh SW 1.2 mph1.9 kmh 29.83 in1010.2 mb 0.00 in0.0 mm 0.00 in0.0 mm 0.00 in0.0 mm
10:12 AM 71.6°F22.0°C 67.2°F19.6°C 74% 1.8 mph SW2.9 kmh SW 1.9 mph3.1 kmh 29.83 in1010.2 mb 0.00 in0.0 mm 0.00 in0.0 mm 0.00 in0.0 mm
10:14 AM 71.6°F22.0°C 66.9°F19.4°C 72% 2.0 mph WSW3.2 kmh WSW 2.0 mph3.2 kmh 29.83 in1010.2 mb 0.00 in0.0 mm 0.00 in0.0 mm 0.00 in0.0 mm
10:15 AM 71.5°F21.9°C 66.9°F19.4°C 72% 2.6 mph WSW4.2 kmh WSW 2.6 mph4.2 kmh 29.83 in1010.2 mb 0.00 in0.0 mm 0.00 in0.0 mm 0.00 in0.0 mm
10:17 AM 71.4°F21.9°C 66.9°F19.4°C 72% 4.4 mph SW7.1 kmh SW 4.5 mph7.2 kmh 29.83 in1010.2 mb 0.00 in0.0 mm 0.00 in0.0 mm 0.00 in0.0 mm
10:18 AM 71.5°F21.9°C 67.6°F19.8°C 72% 4.2 mph SW6.8 kmh SW 4.2 mph6.8 kmh 29.83 in1010.2 mb 0.00 in0.0 mm 0.00 in0.0 mm 0.00 in0.0 mm
10:20 AM 72.1°F22.3°C 67.3°F19.6°C 71% 1.2 mph NNW1.9 kmh NNW 1.2 mph1.9 kmh 29.83 in1010.2 mb 0.00 in0.0 mm 0.00 in0.0 mm 0.00 in0.0 mm
10:21 AM 72.2°F22.3°C 67.2°F19.6°C 71% 0.9 mph NW1.4 kmh NW 0.9 mph1.4 kmh 29.83 in1010.2 mb 0.00 in0.0 mm 0.00 in0.0 mm 0.00 in0.0 mm
10:23 AM 71.7°F22.1°C 67.0°F19.4°C 70% 3.6 mph NNW5.8 kmh NNW 3.7 mph6.0 kmh 29.83 in1010.2 mb 0.00 in0.0 mm 0.00 in0.0 mm 0.00 in0.0 mm
10:24 AM 71.7°F22.1°C 67.2°F19.6°C 70% 3.7 mph NNW6.0 kmh NNW 3.8 mph6.1 kmh 29.83 in1010.2 mb 0.00 in0.0 mm 0.00 in0.0 mm 0.00 in0.0 mm
10:26 AM 72.3°F22.4°C 67.8°F19.9°C 71% 4.0 mph WSW6.4 kmh WSW 4.0 mph6.4 kmh 29.83 in1010.2 mb 0.00 in0.0 mm 0.00 in0.0 mm 0.00 in0.0 mm
10:27 AM 72.3°F22.4°C 67.8°F19.9°C 70% 3.5 mph WSW5.6 kmh WSW 3.6 mph5.8 kmh 29.83 in1010.2 mb 0.00 in0.0 mm 0.00 in0.0 mm 0.00 in0.0 mm
10:29 AM 72.4°F22.4°C 67.5°F19.7°C 69% 2.4 mph NNW3.9 kmh NNW 2.4 mph3.9 kmh 29.83 in1010.2 mb 0.00 in0.0 mm 0.00 in0.0 mm 0.00 in0.0 mm
10:30 AM 72.4°F22.4°C 67.6°F19.8°C 69% 1.8 mph SW2.9 kmh SW 1.9 mph3.1 kmh 29.83 in1010.2 mb 0.00 in0.0 mm 0.00 in0.0 mm 0.00 in0.0 mm
10:32 AM 71.6°F22.0°C 67.4°F19.7°C 68% 2.8 mph SW4.5 kmh SW 2.8 mph4.5 kmh 29.83 in1010.2 mb 0.00 in0.0 mm 0.00 in0.0 mm 0.00 in0.0 mm
10:33 AM 71.5°F21.9°C 67.1°F19.5°C 67% 2.3 mph WSW3.7 kmh WSW 2.3 mph3.7 kmh 29.83 in1010.2 mb 0.00 in0.0 mm 0.00 in0.0 mm 0.00 in0.0 mm
10:35 AM 72.1°F22.3°C 67.4°F19.7°C 67% 0.8 mph W1.3 kmh W 0.8 mph1.3 kmh 29.83 in1010.2 mb 0.00 in0.0 mm 0.00 in0.0 mm 0.00 in0.0 mm
10:36 AM 72.2°F22.3°C 67.2°F19.6°C 67% 0.9 mph WNW1.4 kmh WNW 1.0 mph1.6 kmh 29.83 in1010.2 mb 0.00 in0.0 mm 0.00 in0.0 mm 0.00 in0.0 mm
10:38 AM 72.4°F22.4°C 68.0°F20.0°C 68% 3.2 mph WSW5.1 kmh WSW 3.2 mph5.1 kmh 29.83 in1010.2 mb 0.00 in0.0 mm 0.00 in0.0 mm 0.00 in0.0 mm
10:39 AM 72.3°F22.4°C 67.8°F19.9°C 67% 3.0 mph W4.8 kmh W 3.1 mph5.0 kmh 29.83 in1010.2 mb 0.00 in0.0 mm 0.00 in0.0 mm 0.00 in0.0 mm
10:41 AM 72.4°F22.4°C 67.7°F19.8°C 66% 0.4 mph SSE0.6 kmh SSE 0.4 mph0.6 kmh 29.83 in1010.2 mb 0.00 in0.0 mm 0.00 in0.0 mm 0.00 in0.0 mm
10:42 AM 72.5°F22.5°C 68.1°F20.1°C 67% 0.9 mph S1.4 kmh S 1.0 mph1.6 kmh 29.83 in1010.2 mb 0.00 in0.0 mm 0.00 in0.0 mm 0.00 in0.0 mm
10:44 AM 71.4°F21.9°C 66.2°F19.0°C 64% 1.2 mph SSW1.9 kmh SSW 1.2 mph1.9 kmh 29.83 in1010.2 mb 0.00 in0.0 mm 0.00 in0.0 mm 0.00 in0.0 mm
10:45 AM 71.4°F21.9°C 66.2°F19.0°C 64% 1.0 mph SSW1.6 kmh SSW 1.0 mph1.6 kmh 29.83 in1010.2 mb 0.00 in0.0 mm 0.00 in0.0 mm 0.00 in0.0 mm
10:47 AM 73.6°F23.1°C 68.7°F20.4°C 68% 3.6 mph SSW5.8 kmh SSW 3.6 mph5.8 kmh 29.83 in1010.2 mb 0.00 in0.0 mm 0.00 in0.0 mm 0.00 in0.0 mm
10:48 AM 73.6°F23.1°C 68.4°F20.2°C 68% 3.8 mph WSW6.1 kmh WSW 3.8 mph6.1 kmh 29.83 in1010.2 mb 0.00 in0.0 mm 0.00 in0.0 mm 0.00 in0.0 mm
10:50 AM 73.1°F22.8°C 68.2°F20.1°C 66% 3.2 mph WSW5.1 kmh WSW 3.2 mph5.1 kmh 29.83 in1010.2 mb 0.00 in0.0 mm 0.00 in0.0 mm 0.00 in0.0 mm
10:51 AM 73.1°F22.8°C 68.2°F20.1°C 66% 2.1 mph WSW3.4 kmh WSW 2.1 mph3.4 kmh 29.83 in1010.2 mb 0.00 in0.0 mm 0.00 in0.0 mm 0.00 in0.0 mm
10:53 AM 73.4°F23.0°C 67.7°F19.8°C 64% 1.6 mph W2.6 kmh W 1.6 mph2.6 kmh 29.83 in1010.2 mb 0.00 in0.0 mm 0.00 in0.0 mm 0.00 in0.0 mm
10:54 AM 73.3°F22.9°C 67.7°F19.8°C 64% 2.7 mph SW4.3 kmh SW 2.7 mph4.3 kmh 29.83 in1010.2 mb 0.00 in0.0 mm 0.00 in0.0 mm 0.00 in0.0 mm
10:56 AM 72.1°F22.3°C 67.9°F19.9°C 64% 1.2 mph SSW1.9 kmh SSW 1.2 mph1.9 kmh 29.83 in1010.2 mb 0.00 in0.0 mm 0.00 in0.0 mm 0.00 in0.0 mm
10:57 AM 72.1°F22.3°C 68.3°F20.2°C 65% 1.2 mph SSW1.9 kmh SSW 1.2 mph1.9 kmh 29.83 in1010.2 mb 0.00 in0.0 mm 0.00 in0.0 mm 0.00 in0.0 mm
10:59 AM 72.3°F22.4°C 68.1°F20.1°C 65% 2.4 mph SW3.9 kmh SW 2.5 mph4.0 kmh 29.83 in1010.2 mb 0.00 in0.0 mm 0.00 in0.0 mm 0.00 in0.0 mm
11:00 AM 72.3°F22.4°C 68.2°F20.1°C 65% 2.7 mph WSW4.3 kmh WSW 2.8 mph4.5 kmh 29.83 in1010.2 mb 0.00 in0.0 mm 0.00 in0.0 mm 0.00 in0.0 mm
11:02 AM 72.6°F22.6°C 67.4°F19.7°C 63% 0.8 mph SSE1.3 kmh SSE 0.8 mph1.3 kmh 29.82 in1009.8 mb 0.00 in0.0 mm 0.00 in0.0 mm 0.00 in0.0 mm
11:03 AM 72.5°F22.5°C 66.9°F19.4°C 62% 1.2 mph SSE1.9 kmh SSE 1.4 mph2.3 kmh 29.83 in1010.2 mb 0.00 in0.0 mm 0.00 in0.0 mm 0.00 in0.0 mm
11:05 AM 73.9°F23.3°C 68.1°F20.1°C 65% Calm Calm -- 29.83 in1010.2 mb 0.00 in0.0 mm 0.00 in0.0 mm 0.00 in0.0 mm
11:06 AM 74.0°F23.3°C 68.3°F20.2°C 65% Calm Calm -- 29.82 in1009.8 mb 0.00 in0.0 mm 0.00 in0.0 mm 0.00 in0.0 mm
11:08 AM 73.3°F22.9°C 67.1°F19.5°C 62% 0.8 mph S1.3 kmh S 0.8 mph1.3 kmh 29.83 in1010.2 mb 0.00 in0.0 mm 0.00 in0.0 mm 0.00 in0.0 mm
11:09 AM 73.4°F23.0°C 67.4°F19.7°C 61% 0.9 mph SSW1.4 kmh SSW 1.0 mph1.6 kmh 29.83 in1010.2 mb 0.00 in0.0 mm 0.00 in0.0 mm 0.00 in0.0 mm
11:11 AM 74.0°F23.3°C 67.8°F19.9°C 62% Calm Calm -- 29.83 in1010.2 mb 0.00 in0.0 mm 0.00 in0.0 mm 0.00 in0.0 mm
11:12 AM 73.9°F23.3°C 67.8°F19.9°C 62% 0.2 mph SE0.3 kmh SE 0.2 mph0.3 kmh 29.83 in1010.2 mb 0.00 in0.0 mm 0.00 in0.0 mm 0.00 in0.0 mm
11:14 AM 76.0°F24.4°C 70.1°F21.2°C 67% 4.0 mph SW6.4 kmh SW 4.0 mph6.4 kmh 29.83 in1010.2 mb 0.00 in0.0 mm 0.00 in0.0 mm 0.00 in0.0 mm
11:15 AM 76.0°F24.4°C 70.7°F21.5°C 67% 3.5 mph WSW5.6 kmh WSW 3.6 mph5.8 kmh 29.83 in1010.2 mb 0.00 in0.0 mm 0.00 in0.0 mm 0.00 in0.0 mm
11:17 AM 75.2°F24.0°C 68.0°F20.0°C 59% 5.2 mph NNW8.4 kmh NNW 5.3 mph8.5 kmh 29.83 in1010.2 mb 0.00 in0.0 mm 0.00 in0.0 mm 0.00 in0.0 mm
11:18 AM 75.1°F23.9°C 67.2°F19.6°C 60% 0.5 mph SW0.8 kmh SW 0.5 mph0.8 kmh 29.83 in1010.2 mb 0.00 in0.0 mm 0.00 in0.0 mm 0.00 in0.0 mm
11:20 AM 76.7°F24.8°C 68.4°F20.2°C 60% 2.4 mph S3.9 kmh S 2.5 mph4.0 kmh 29.83 in1010.2 mb 0.00 in0.0 mm 0.00 in0.0 mm 0.00 in0.0 mm
11:21 AM 74.4°F23.6°C 68.8°F20.4°C 62% 1.3 mph SW2.1 kmh SW 1.3 mph2.1 kmh 29.82 in1009.8 mb 0.00 in0.0 mm 0.00 in0.0 mm 0.00 in0.0 mm
11:23 AM 75.4°F24.1°C 68.1°F20.1°C 60% 2.8 mph ESE4.5 kmh ESE 2.8 mph4.5 kmh 29.83 in1010.2 mb 0.00 in0.0 mm 0.00 in0.0 mm 0.00 in0.0 mm
11:24 AM 75.3°F24.1°C 68.0°F20.0°C 60% 1.8 mph ESE2.9 kmh ESE 1.9 mph3.1 kmh 29.83 in1010.2 mb 0.00 in0.0 mm 0.00 in0.0 mm 0.00 in0.0 mm
11:26 AM 75.3°F24.1°C 66.6°F19.2°C 57% 0.4 mph ESE0.6 kmh ESE 0.4 mph0.6 kmh 29.83 in1010.2 mb 0.00 in0.0 mm 0.00 in0.0 mm 0.00 in0.0 mm
11:27 AM 75.1°F23.9°C 66.5°F19.2°C 57% 0.2 mph ESE0.3 kmh ESE 0.3 mph0.5 kmh 29.83 in1010.2 mb 0.00 in0.0 mm 0.00 in0.0 mm 0.00 in0.0 mm
11:29 AM 75.0°F23.9°C 68.0°F20.0°C 61% 1.6 mph SW2.6 kmh SW 1.6 mph2.6 kmh 29.83 in1010.2 mb 0.00 in0.0 mm 0.00 in0.0 mm 0.00 in0.0 mm
11:30 AM 75.0°F23.9°C 68.2°F20.1°C 60% 1.6 mph SW2.6 kmh SW 1.8 mph2.9 kmh 29.83 in1010.2 mb 0.00 in0.0 mm 0.00 in0.0 mm 0.00 in0.0 mm
11:32 AM 74.6°F23.7°C 67.9°F19.9°C 60% 1.6 mph S2.6 kmh S 1.6 mph2.6 kmh 29.83 in1010.2 mb 0.00 in0.0 mm 0.00 in0.0 mm 0.00 in0.0 mm
11:33 AM 74.4°F23.6°C 67.7°F19.8°C 60% 1.6 mph S2.6 kmh S 1.8 mph2.9 kmh 29.83 in1010.2 mb 0.00 in0.0 mm 0.00 in0.0 mm 0.00 in0.0 mm
11:35 AM 75.0°F23.9°C 68.1°F20.1°C 60% 1.2 mph SSE1.9 kmh SSE 1.2 mph1.9 kmh 29.83 in1010.2 mb 0.00 in0.0 mm 0.00 in0.0 mm 0.00 in0.0 mm
11:36 AM 74.9°F23.8°C 67.8°F19.9°C 60% 1.1 mph SSE1.8 kmh SSE 1.1 mph1.8 kmh 29.83 in1010.2 mb 0.00 in0.0 mm 0.00 in0.0 mm 0.00 in0.0 mm
11:38 AM 74.9°F23.8°C 69.3°F20.7°C 63% 2.7 mph NNW4.3 kmh NNW 2.7 mph4.3 kmh 29.83 in1010.2 mb 0.00 in0.0 mm 0.00 in0.0 mm 0.00 in0.0 mm
11:39 AM 75.0°F23.9°C 68.8°F20.4°C 62% 2.0 mph SSW3.2 kmh SSW 2.0 mph3.2 kmh 29.83 in1010.2 mb 0.00 in0.0 mm 0.00 in0.0 mm 0.00 in0.0 mm
11:41 AM 75.7°F24.3°C 68.6°F20.3°C 61% 0.8 mph SSW1.3 kmh SSW 0.8 mph1.3 kmh 29.83 in1010.2 mb 0.00 in0.0 mm 0.00 in0.0 mm 0.00 in0.0 mm
11:42 AM 75.7°F24.3°C 68.9°F20.5°C 61% 1.2 mph SW1.9 kmh SW 1.2 mph1.9 kmh 29.83 in1010.2 mb 0.00 in0.0 mm 0.00 in0.0 mm 0.00 in0.0 mm
11:44 AM 75.7°F24.3°C 68.5°F20.3°C 61% 0.8 mph SW1.3 kmh SW 0.8 mph1.3 kmh 29.83 in1010.2 mb 0.00 in0.0 mm 0.00 in0.0 mm 0.00 in0.0 mm
11:45 AM 75.5°F24.2°C 68.2°F20.1°C 60% Calm Calm -- 29.83 in1010.2 mb 0.00 in0.0 mm 0.00 in0.0 mm 0.00 in0.0 mm
11:47 AM 75.8°F24.3°C 68.1°F20.1°C 59% 4.9 mph W7.9 kmh W 4.9 mph7.9 kmh 29.83 in1010.2 mb 0.00 in0.0 mm 0.00 in0.0 mm 0.00 in0.0 mm
11:48 AM 75.9°F24.4°C 67.9°F19.9°C 59% 4.4 mph W7.1 kmh W 4.4 mph7.1 kmh 29.83 in1010.2 mb 0.00 in0.0 mm 0.00 in0.0 mm 0.00 in0.0 mm
11:50 AM 75.0°F23.9°C 67.7°F19.8°C 58% 4.5 mph SW7.2 kmh SW 4.5 mph7.2 kmh 29.83 in1010.2 mb 0.00 in0.0 mm 0.00 in0.0 mm 0.00 in0.0 mm
11:51 AM 75.0°F23.9°C 67.9°F19.9°C 58% 4.8 mph SW7.7 kmh SW 4.8 mph7.7 kmh 29.83 in1010.2 mb 0.00 in0.0 mm 0.00 in0.0 mm 0.00 in0.0 mm
11:53 AM 75.2°F24.0°C 67.1°F19.5°C 58% 2.4 mph SW3.9 kmh SW 2.4 mph3.9 kmh 29.83 in1010.2 mb 0.00 in0.0 mm 0.00 in0.0 mm 0.00 in0.0 mm
11:54 AM 75.4°F24.1°C 67.4°F19.7°C 58% 3.0 mph W4.8 kmh W 3.0 mph4.8 kmh 29.83 in1010.2 mb 0.00 in0.0 mm 0.00 in0.0 mm 0.00 in0.0 mm
11:58 AM 76.6°F24.8°C 68.3°F20.2°C 60% 0.0 mph SW0.0 kmh SW 0.0 mph0.0 kmh 29.83 in1010.2 mb 0.00 in0.0 mm 0.00 in0.0 mm 0.00 in0.0 mm
12:01 PM 77.5°F25.3°C 68.4°F20.2°C 59% 1.5 mph SW2.4 kmh SW 1.6 mph2.6 kmh 29.83 in1010.2 mb 0.00 in0.0 mm 0.00 in0.0 mm 0.00 in0.0 mm
12:04 PM 77.9°F25.5°C 67.6°F19.8°C 57% 2.4 mph NW3.9 kmh NW 2.4 mph3.9 kmh 29.83 in1010.2 mb 0.00 in0.0 mm 0.00 in0.0 mm 0.00 in0.0 mm
12:07 PM 77.5°F25.3°C 67.7°F19.8°C 56% 5.2 mph W8.4 kmh W 5.3 mph8.5 kmh 29.83 in1010.2 mb 0.00 in0.0 mm 0.00 in0.0 mm 0.00 in0.0 mm
12:10 PM 78.1°F25.6°C 69.1°F20.6°C 59% 0.8 mph SW1.3 kmh SW 0.8 mph1.3 kmh 29.83 in1010.2 mb 0.00 in0.0 mm 0.00 in0.0 mm 0.00 in0.0 mm
12:13 PM 75.8°F24.3°C 68.3°F20.2°C 57% 4.0 mph WSW6.4 kmh WSW 4.0 mph6.4 kmh 29.82 in1009.8 mb 0.00 in0.0 mm 0.00 in0.0 mm 0.00 in0.0 mm
12:16 PM 77.6°F25.3°C 68.1°F20.1°C 57% 2.4 mph NNW3.9 kmh NNW 2.4 mph3.9 kmh 29.82 in1009.8 mb 0.00 in0.0 mm 0.00 in0.0 mm 0.00 in0.0 mm
12:19 PM 77.5°F25.3°C 69.1°F20.6°C 58% 3.2 mph W5.1 kmh W 3.3 mph5.3 kmh 29.83 in1010.2 mb 0.00 in0.0 mm 0.00 in0.0 mm 0.00 in0.0 mm
12:22 PM 75.2°F24.0°C 68.3°F20.2°C 57% 1.6 mph SW2.6 kmh SW 1.6 mph2.6 kmh 29.83 in1010.2 mb 0.00 in0.0 mm 0.00 in0.0 mm 0.00 in0.0 mm
12:25 PM 77.2°F25.1°C 68.4°F20.2°C 58% 1.2 mph WSW1.9 kmh WSW 1.2 mph1.9 kmh 29.83 in1010.2 mb 0.00 in0.0 mm 0.00 in0.0 mm 0.00 in0.0 mm
12:28 PM 74.6°F23.7°C 67.3°F19.6°C 55% Calm Calm -- 29.82 in1009.8 mb 0.00 in0.0 mm 0.00 in0.0 mm 0.00 in0.0 mm
12:30 PM 74.2°F23.4°C 67.4°F19.7°C 57% 0.8 mph S1.3 kmh S 0.8 mph1.3 kmh 29.83 in1010.2 mb 0.00 in0.0 mm 0.00 in0.0 mm 0.00 in0.0 mm
12:31 PM 74.2°F23.4°C 67.6°F19.8°C 57% 0.9 mph S1.4 kmh S 1.1 mph1.8 kmh 29.83 in1010.2 mb 0.00 in0.0 mm 0.00 in0.0 mm 0.00 in0.0 mm
12:33 PM 74.8°F23.8°C 68.3°F20.2°C 58% 2.4 mph SW3.9 kmh SW 2.4 mph3.9 kmh 29.83 in1010.2 mb 0.00 in0.0 mm 0.00 in0.0 mm 0.00 in0.0 mm
12:34 PM 74.8°F23.8°C 68.3°F20.2°C 58% 2.8 mph SSW4.5 kmh SSW 2.8 mph4.5 kmh 29.83 in1010.2 mb 0.00 in0.0 mm 0.00 in0.0 mm 0.00 in0.0 mm
12:37 PM 73.0°F22.8°C 65.4°F18.6°C 54% 1.2 mph NNW1.9 kmh NNW 1.2 mph1.9 kmh 29.83 in1010.2 mb 0.00 in0.0 mm 0.00 in0.0 mm 0.00 in0.0 mm
12:39 PM 73.7°F23.2°C 66.4°F19.1°C 58% 1.2 mph SE1.9 kmh SE 1.2 mph1.9 kmh 29.83 in1010.2 mb 0.00 in0.0 mm 0.00 in0.0 mm 0.00 in0.0 mm
12:40 PM 73.7°F23.2°C 66.1°F18.9°C 58% 1.2 mph SE1.9 kmh SE 1.4 mph2.3 kmh 29.83 in1010.2 mb 0.00 in0.0 mm 0.00 in0.0 mm 0.00 in0.0 mm
12:43 PM 74.1°F23.4°C 66.3°F19.1°C 57% Calm Calm -- 29.83 in1010.2 mb 0.00 in0.0 mm 0.00 in0.0 mm 0.00 in0.0 mm
12:45 PM 74.9°F23.8°C 68.4°F20.2°C 61% 2.4 mph SW3.9 kmh SW 2.4 mph3.9 kmh 29.83 in1010.2 mb 0.00 in0.0 mm 0.00 in0.0 mm 0.00 in0.0 mm
12:46 PM 74.8°F23.8°C 67.6°F19.8°C 61% 2.3 mph SW3.7 kmh SW 2.3 mph3.7 kmh 29.83 in1010.2 mb 0.00 in0.0 mm 0.00 in0.0 mm 0.00 in0.0 mm
12:49 PM 76.4°F24.7°C 68.3°F20.2°C 60% 4.4 mph NNW7.1 kmh NNW 4.5 mph7.2 kmh 29.83 in1010.2 mb 0.00 in0.0 mm 0.00 in0.0 mm 0.00 in0.0 mm
12:51 PM 76.8°F24.9°C 67.6°F19.8°C 59% 2.4 mph W3.9 kmh W 2.4 mph3.9 kmh 29.83 in1010.2 mb 0.00 in0.0 mm 0.00 in0.0 mm 0.00 in0.0 mm
12:52 PM 77.0°F25.0°C 68.2°F20.1°C 59% 2.5 mph W4.0 kmh W 2.7 mph4.3 kmh 29.83 in1010.2 mb 0.00 in0.0 mm 0.00 in0.0 mm 0.00 in0.0 mm
12:55 PM 78.8°F26.0°C 68.2°F20.1°C 59% 2.4 mph NNW3.9 kmh NNW 2.4 mph3.9 kmh 29.83 in1010.2 mb 0.00 in0.0 mm 0.00 in0.0 mm 0.00 in0.0 mm
12:58 PM 77.5°F25.3°C 68.7°F20.4°C 58% 2.0 mph NNW3.2 kmh NNW 2.0 mph3.2 kmh 29.83 in1010.2 mb 0.00 in0.0 mm 0.00 in0.0 mm 0.00 in0.0 mm
01:01 PM 78.5°F25.8°C 68.5°F20.3°C 57% 5.6 mph WSW9.0 kmh WSW 5.6 mph9.0 kmh 29.83 in1010.2 mb 0.00 in0.0 mm 0.00 in0.0 mm 0.00 in0.0 mm
01:04 PM 78.8°F26.0°C 68.7°F20.4°C 57% 3.6 mph SW5.8 kmh SW 3.7 mph6.0 kmh 29.83 in1010.2 mb 0.00 in0.0 mm 0.00 in0.0 mm 0.00 in0.0 mm
01:07 PM 78.4°F25.8°C 68.9°F20.5°C 57% 3.5 mph SW5.6 kmh SW 3.6 mph5.8 kmh 29.83 in1010.2 mb 0.00 in0.0 mm 0.00 in0.0 mm 0.00 in0.0 mm
01:10 PM 78.6°F25.9°C 69.0°F20.6°C 56% 1.2 mph SW1.9 kmh SW 1.2 mph1.9 kmh 29.83 in1010.2 mb 0.00 in0.0 mm 0.00 in0.0 mm 0.00 in0.0 mm
01:13 PM 80.5°F26.9°C 69.2°F20.7°C 56% 1.2 mph NW1.9 kmh NW 1.2 mph1.9 kmh 29.83 in1010.2 mb 0.00 in0.0 mm 0.00 in0.0 mm 0.00 in0.0 mm
01:15 PM 78.0°F25.6°C 68.3°F20.2°C 52% 2.4 mph NNW3.9 kmh NNW 2.5 mph4.0 kmh 29.83 in1010.2 mb 0.00 in0.0 mm 0.00 in0.0 mm 0.00 in0.0 mm
01:16 PM 78.0°F25.6°C 68.7°F20.4°C 53% 2.9 mph NW4.7 kmh NW 2.9 mph4.7 kmh 29.83 in1010.2 mb 0.00 in0.0 mm 0.00 in0.0 mm 0.00 in0.0 mm
01:18 PM 75.9°F24.4°C 68.6°F20.3°C 54% 2.8 mph 4.5 kmh 2.8 mph4.5 kmh 29.83 in1010.2 mb 0.00 in0.0 mm 0.00 in0.0 mm 0.00 in0.0 mm
01:19 PM 75.9°F24.4°C 68.5°F20.3°C 54% 2.3 mph 3.7 kmh 2.3 mph3.7 kmh 29.83 in1010.2 mb 0.00 in0.0 mm 0.00 in0.0 mm 0.00 in0.0 mm
01:22 PM 78.1°F25.6°C 68.9°F20.5°C 55% 2.4 mph 3.9 kmh 2.4 mph3.9 kmh 29.82 in1009.8 mb 0.00 in0.0 mm 0.00 in0.0 mm 0.00 in0.0 mm
01:25 PM 76.3°F24.6°C 68.7°F20.4°C 54% 0.8 mph 1.3 kmh 0.8 mph1.3 kmh 29.83 in1010.2 mb 0.00 in0.0 mm 0.00 in0.0 mm 0.00 in0.0 mm
01:27 PM 77.0°F25.0°C 68.8°F20.4°C 53% Calm Calm -- 29.82 in1009.8 mb 0.00 in0.0 mm 0.00 in0.0 mm 0.00 in0.0 mm
01:28 PM 77.1°F25.1°C 69.0°F20.6°C 53% Calm Calm -- 29.82 in1009.8 mb 0.00 in0.0 mm 0.00 in0.0 mm 0.00 in0.0 mm
01:31 PM 77.8°F25.4°C 69.2°F20.7°C 54% 0.4 mph 0.6 kmh 0.4 mph0.6 kmh 29.82 in1009.8 mb 0.00 in0.0 mm 0.00 in0.0 mm 0.00 in0.0 mm
01:34 PM 76.4°F24.7°C 69.2°F20.7°C 54% 2.8 mph NNE4.5 kmh NNE 2.8 mph4.5 kmh 29.83 in1010.2 mb 0.00 in0.0 mm 0.00 in0.0 mm 0.00 in0.0 mm
01:37 PM 77.9°F25.5°C 69.4°F20.8°C 54% Calm Calm -- 29.82 in1009.8 mb 0.00 in0.0 mm 0.00 in0.0 mm 0.00 in0.0 mm
01:40 PM 77.3°F25.2°C 69.3°F20.7°C 55% 2.0 mph S3.2 kmh S 2.0 mph3.2 kmh 29.82 in1009.8 mb 0.00 in0.0 mm 0.00 in0.0 mm 0.00 in0.0 mm
01:43 PM 77.0°F25.0°C 68.2°F20.1°C 53% 0.4 mph SW0.6 kmh SW 0.4 mph0.6 kmh 29.82 in1009.8 mb 0.00 in0.0 mm 0.00 in0.0 mm 0.00 in0.0 mm
01:49 PM 77.8°F25.4°C 67.1°F19.5°C 52% Calm Calm -- 29.82 in1009.8 mb 0.00 in0.0 mm 0.00 in0.0 mm 0.00 in0.0 mm
01:52 PM 78.2°F25.7°C 66.9°F19.4°C 51% 2.8 mph ESE4.5 kmh ESE 2.9 mph4.7 kmh 29.82 in1009.8 mb 0.00 in0.0 mm 0.00 in0.0 mm 0.00 in0.0 mm
01:57 PM 77.6°F25.3°C 68.1°F20.1°C 53% 0.8 mph WSW1.3 kmh WSW 0.8 mph1.3 kmh 29.82 in1009.8 mb 0.00 in0.0 mm 0.00 in0.0 mm 0.00 in0.0 mm
01:58 PM 77.7°F25.4°C 68.2°F20.1°C 53% 0.7 mph WSW1.1 kmh WSW 0.7 mph1.1 kmh 29.82 in1009.8 mb 0.00 in0.0 mm 0.00 in0.0 mm 0.00 in0.0 mm
02:01 PM 79.0°F26.1°C 69.1°F20.6°C 56% 2.0 mph NNW3.2 kmh NNW 2.0 mph3.2 kmh 29.82 in1009.8 mb 0.00 in0.0 mm 0.00 in0.0 mm 0.00 in0.0 mm
02:04 PM 79.6°F26.4°C 70.1°F21.2°C 55% 0.8 mph SE1.3 kmh SE 0.8 mph1.3 kmh 29.82 in1009.8 mb 0.00 in0.0 mm 0.00 in0.0 mm 0.00 in0.0 mm
02:07 PM 78.8°F26.0°C 69.5°F20.8°C 55% 2.8 mph NNW4.5 kmh NNW 2.8 mph4.5 kmh 29.82 in1009.8 mb 0.00 in0.0 mm 0.00 in0.0 mm 0.00 in0.0 mm
02:09 PM 78.2°F25.7°C 69.3°F20.7°C 53% 1.6 mph SW2.6 kmh SW 1.6 mph2.6 kmh 29.82 in1009.8 mb 0.00 in0.0 mm 0.00 in0.0 mm 0.00 in0.0 mm
02:10 PM 78.2°F25.7°C 69.2°F20.7°C 53% 0.9 mph SW1.4 kmh SW 1.1 mph1.8 kmh 29.82 in1009.8 mb 0.00 in0.0 mm 0.00 in0.0 mm 0.00 in0.0 mm
02:12 PM 78.0°F25.6°C 68.0°F20.0°C 51% 2.4 mph SE3.9 kmh SE 2.4 mph3.9 kmh 29.82 in1009.8 mb 0.00 in0.0 mm 0.00 in0.0 mm 0.00 in0.0 mm
02:13 PM 78.1°F25.6°C 67.1°F19.5°C 51% 2.8 mph SE4.5 kmh SE 2.8 mph4.5 kmh 29.82 in1009.8 mb 0.00 in0.0 mm 0.00 in0.0 mm 0.00 in0.0 mm
02:16 PM 78.0°F25.6°C 67.6°F19.8°C 52% 0.8 mph SSE1.3 kmh SSE 0.8 mph1.3 kmh 29.82 in1009.8 mb 0.00 in0.0 mm 0.00 in0.0 mm 0.00 in0.0 mm
02:19 PM 78.8°F26.0°C 68.8°F20.4°C 55% 1.2 mph SSE1.9 kmh SSE 1.2 mph1.9 kmh 29.82 in1009.8 mb 0.00 in0.0 mm 0.00 in0.0 mm 0.00 in0.0 mm
02:22 PM 79.5°F26.4°C 69.7°F20.9°C 54% 0.4 mph SSW0.6 kmh SSW 0.4 mph0.6 kmh 29.82 in1009.8 mb 0.00 in0.0 mm 0.00 in0.0 mm 0.00 in0.0 mm
02:25 PM 78.7°F25.9°C 68.1°F20.1°C 52% 0.8 mph SE1.3 kmh SE 0.8 mph1.3 kmh 29.82 in1009.8 mb 0.00 in0.0 mm 0.00 in0.0 mm 0.00 in0.0 mm
02:28 PM 78.1°F25.6°C 68.0°F20.0°C 52% Calm Calm -- 29.82 in1009.8 mb 0.00 in0.0 mm 0.00 in0.0 mm 0.00 in0.0 mm
02:30 PM 77.9°F25.5°C 67.8°F19.9°C 52% Calm Calm -- 29.81 in1009.5 mb 0.00 in0.0 mm 0.00 in0.0 mm 0.00 in0.0 mm
02:31 PM 77.9°F25.5°C 67.9°F19.9°C 52% Calm Calm -- 29.82 in1009.8 mb 0.00 in0.0 mm 0.00 in0.0 mm 0.00 in0.0 mm
02:33 PM 77.3°F25.2°C 67.0°F19.4°C 51% 0.8 mph SE1.3 kmh SE 0.8 mph1.3 kmh 29.82 in1009.8 mb 0.00 in0.0 mm 0.00 in0.0 mm 0.00 in0.0 mm
02:34 PM 77.2°F25.1°C 67.1°F19.5°C 50% 1.0 mph SE1.6 kmh SE 1.0 mph1.6 kmh 29.82 in1009.8 mb 0.00 in0.0 mm 0.00 in0.0 mm 0.00 in0.0 mm
02:37 PM 78.6°F25.9°C 68.4°F20.2°C 53% Calm Calm -- 29.82 in1009.8 mb 0.00 in0.0 mm 0.00 in0.0 mm 0.00 in0.0 mm
02:39 PM 78.7°F25.9°C 69.2°F20.7°C 54% Calm Calm -- 29.81 in1009.5 mb 0.00 in0.0 mm 0.00 in0.0 mm 0.00 in0.0 mm
02:40 PM 78.9°F26.1°C 69.2°F20.7°C 54% Calm Calm -- 29.81 in1009.5 mb 0.00 in0.0 mm 0.00 in0.0 mm 0.00 in0.0 mm
02:43 PM 80.7°F27.1°C 70.1°F21.2°C 54% 0.4 mph NNW0.6 kmh NNW 0.4 mph0.6 kmh 29.81 in1009.5 mb 0.00 in0.0 mm 0.00 in0.0 mm 0.00 in0.0 mm
02:45 PM 79.4°F26.3°C 69.9°F21.1°C 53% Calm Calm -- 29.81 in1009.5 mb 0.00 in0.0 mm 0.00 in0.0 mm 0.00 in0.0 mm
02:46 PM 79.4°F26.3°C 69.8°F21.0°C 52% 0.3 mph 0.5 kmh 0.3 mph0.5 kmh 29.81 in1009.5 mb 0.00 in0.0 mm 0.00 in0.0 mm 0.00 in0.0 mm
02:48 PM 78.2°F25.7°C 66.8°F19.3°C 48% 0.4 mph ESE0.6 kmh ESE 0.4 mph0.6 kmh 29.81 in1009.5 mb 0.00 in0.0 mm 0.00 in0.0 mm 0.00 in0.0 mm
02:49 PM 78.2°F25.7°C 67.4°F19.7°C 48% 0.5 mph SE0.8 kmh SE 0.5 mph0.8 kmh 29.81 in1009.5 mb 0.00 in0.0 mm 0.00 in0.0 mm 0.00 in0.0 mm
02:51 PM 79.3°F26.3°C 69.7°F20.9°C 52% Calm Calm -- 29.81 in1009.5 mb 0.00 in0.0 mm 0.00 in0.0 mm 0.00 in0.0 mm
02:52 PM 79.1°F26.2°C 68.8°F20.4°C 52% Calm Calm -- 29.81 in1009.5 mb 0.00 in0.0 mm 0.00 in0.0 mm 0.00 in0.0 mm
02:55 PM 78.5°F25.8°C 69.4°F20.8°C 53% 0.4 mph SSE0.6 kmh SSE 0.4 mph0.6 kmh 29.81 in1009.5 mb 0.00 in0.0 mm 0.00 in0.0 mm 0.00 in0.0 mm
02:58 PM 79.4°F26.3°C 68.9°F20.5°C 52% Calm Calm -- 29.81 in1009.5 mb 0.00 in0.0 mm 0.00 in0.0 mm 0.00 in0.0 mm
03:00 PM 79.8°F26.6°C 69.6°F20.9°C 52% Calm Calm -- 29.81 in1009.5 mb 0.00 in0.0 mm 0.00 in0.0 mm 0.00 in0.0 mm
03:01 PM 79.8°F26.6°C 69.3°F20.7°C 52% Calm Calm -- 29.81 in1009.5 mb 0.00 in0.0 mm 0.00 in0.0 mm 0.00 in0.0 mm
03:03 PM 79.7°F26.5°C 68.3°F20.2°C 51% Calm Calm -- 29.81 in1009.5 mb 0.00 in0.0 mm 0.00 in0.0 mm 0.00 in0.0 mm
03:04 PM 79.6°F26.4°C 68.0°F20.0°C 51% Calm Calm -- 29.81 in1009.5 mb 0.00 in0.0 mm 0.00 in0.0 mm 0.00 in0.0 mm
03:06 PM 78.7°F25.9°C 69.2°F20.7°C 52% 3.2 mph SE5.1 kmh SE 3.3 mph5.3 kmh 29.81 in1009.5 mb 0.00 in0.0 mm 0.00 in0.0 mm 0.00 in0.0 mm
03:07 PM 78.7°F25.9°C 68.3°F20.2°C 52% 3.0 mph SE4.8 kmh SE 3.0 mph4.8 kmh 29.81 in1009.5 mb 0.00 in0.0 mm 0.00 in0.0 mm 0.00 in0.0 mm
03:09 PM 78.2°F25.7°C 69.3°F20.7°C 52% 0.4 mph SE0.6 kmh SE 0.4 mph0.6 kmh 29.81 in1009.5 mb 0.00 in0.0 mm 0.00 in0.0 mm 0.00 in0.0 mm
03:10 PM 78.2°F25.7°C 68.4°F20.2°C 52% 0.5 mph SE0.8 kmh SE 0.5 mph0.8 kmh 29.81 in1009.5 mb 0.00 in0.0 mm 0.00 in0.0 mm 0.00 in0.0 mm
03:12 PM 78.8°F26.0°C 68.2°F20.1°C 51% Calm Calm -- 29.81 in1009.5 mb 0.00 in0.0 mm 0.00 in0.0 mm 0.00 in0.0 mm
03:13 PM 78.9°F26.1°C 68.8°F20.4°C 51% Calm Calm -- 29.81 in1009.5 mb 0.00 in0.0 mm 0.00 in0.0 mm 0.00 in0.0 mm
03:16 PM 79.3°F26.3°C 69.2°F20.7°C 53% 1.6 mph SE2.6 kmh SE 1.6 mph2.6 kmh 29.81 in1009.5 mb 0.00 in0.0 mm 0.00 in0.0 mm 0.00 in0.0 mm
03:19 PM 79.4°F26.3°C 68.9°F20.5°C 52% 0.4 mph SE0.6 kmh SE 0.4 mph0.6 kmh 29.81 in1009.5 mb 0.00 in0.0 mm 0.00 in0.0 mm 0.00 in0.0 mm
03:22 PM 79.9°F26.6°C 69.6°F20.9°C 54% Calm Calm -- 29.81 in1009.5 mb 0.00 in0.0 mm 0.00 in0.0 mm 0.00 in0.0 mm
03:24 PM 80.0°F26.7°C 68.1°F20.1°C 52% 0.4 mph E0.6 kmh E 0.4 mph0.6 kmh 29.81 in1009.5 mb 0.00 in0.0 mm 0.00 in0.0 mm 0.00 in0.0 mm
03:25 PM 80.2°F26.8°C 67.8°F19.9°C 52% 0.5 mph E0.8 kmh E 0.5 mph0.8 kmh 29.81 in1009.5 mb 0.00 in0.0 mm 0.00 in0.0 mm 0.00 in0.0 mm
03:28 PM 81.4°F27.4°C 69.8°F21.0°C 53% 0.8 mph 1.3 kmh 0.8 mph1.3 kmh 29.81 in1009.5 mb 0.00 in0.0 mm 0.00 in0.0 mm 0.00 in0.0 mm
03:31 PM 78.8°F26.0°C 69.3°F20.7°C 53% 4.0 mph NNE6.4 kmh NNE 4.0 mph6.4 kmh 29.81 in1009.5 mb 0.00 in0.0 mm 0.00 in0.0 mm 0.00 in0.0 mm
03:34 PM 77.9°F25.5°C 70.6°F21.4°C 54% 4.4 mph NNE7.1 kmh NNE 4.4 mph7.1 kmh 29.81 in1009.5 mb 0.00 in0.0 mm 0.00 in0.0 mm 0.00 in0.0 mm
03:37 PM 78.2°F25.7°C 70.0°F21.1°C 54% 2.0 mph 3.2 kmh 2.0 mph3.2 kmh 29.81 in1009.5 mb 0.00 in0.0 mm 0.00 in0.0 mm 0.00 in0.0 mm
03:40 PM 78.1°F25.6°C 69.5°F20.8°C 53% 2.8 mph NE4.5 kmh NE 2.9 mph4.7 kmh 29.81 in1009.5 mb 0.00 in0.0 mm 0.00 in0.0 mm 0.00 in0.0 mm
03:43 PM 78.6°F25.9°C 70.1°F21.2°C 54% Calm Calm -- 29.81 in1009.5 mb 0.00 in0.0 mm 0.00 in0.0 mm 0.00 in0.0 mm
03:45 PM 79.3°F26.3°C 70.2°F21.2°C 54% 0.4 mph ESE0.6 kmh ESE 0.4 mph0.6 kmh 29.80 in1009.1 mb 0.00 in0.0 mm 0.00 in0.0 mm 0.00 in0.0 mm
03:46 PM 79.4°F26.3°C 70.3°F21.3°C 54% 0.2 mph ESE0.3 kmh ESE 0.3 mph0.5 kmh 29.80 in1009.1 mb 0.00 in0.0 mm 0.00 in0.0 mm 0.00 in0.0 mm
03:48 PM 78.9°F26.1°C 68.8°F20.4°C 52% 1.2 mph NE1.9 kmh NE 1.2 mph1.9 kmh 29.79 in1008.8 mb 0.00 in0.0 mm 0.00 in0.0 mm 0.00 in0.0 mm
03:49 PM 79.0°F26.1°C 68.9°F20.5°C 52% 0.7 mph NE1.1 kmh NE 0.7 mph1.1 kmh 29.79 in1008.8 mb 0.00 in0.0 mm 0.00 in0.0 mm 0.00 in0.0 mm
03:55 PM 79.3°F26.3°C 69.8°F21.0°C 53% Calm Calm -- 29.79 in1008.8 mb 0.00 in0.0 mm 0.00 in0.0 mm 0.00 in0.0 mm
03:58 PM 78.7°F25.9°C 69.4°F20.8°C 53% 2.4 mph ESE3.9 kmh ESE 2.4 mph3.9 kmh 29.79 in1008.8 mb 0.00 in0.0 mm 0.00 in0.0 mm 0.00 in0.0 mm
04:01 PM 79.5°F26.4°C 68.8°F20.4°C 53% 1.2 mph NNW1.9 kmh NNW 1.2 mph1.9 kmh 29.79 in1008.8 mb 0.00 in0.0 mm 0.00 in0.0 mm 0.00 in0.0 mm
04:04 PM 79.6°F26.4°C 69.3°F20.7°C 54% 1.6 mph NNW2.6 kmh NNW 1.6 mph2.6 kmh 29.79 in1008.8 mb 0.00 in0.0 mm 0.00 in0.0 mm 0.00 in0.0 mm
04:07 PM 80.7°F27.1°C 68.3°F20.2°C 52% 2.0 mph ESE3.2 kmh ESE 2.0 mph3.2 kmh 29.79 in1008.8 mb 0.00 in0.0 mm 0.00 in0.0 mm 0.00 in0.0 mm
04:10 PM 80.3°F26.8°C 67.0°F19.4°C 50% Calm Calm -- 29.79 in1008.8 mb 0.00 in0.0 mm 0.00 in0.0 mm 0.00 in0.0 mm
04:13 PM 80.9°F27.2°C 67.7°F19.8°C 52% 1.2 mph SE1.9 kmh SE 1.2 mph1.9 kmh 29.79 in1008.8 mb 0.00 in0.0 mm 0.00 in0.0 mm 0.00 in0.0 mm
04:15 PM 79.7°F26.5°C 67.9°F19.9°C 51% Calm Calm -- 29.79 in1008.8 mb 0.00 in0.0 mm 0.00 in0.0 mm 0.00 in0.0 mm
04:16 PM 79.7°F26.5°C 67.5°F19.7°C 51% Calm Calm -- 29.79 in1008.8 mb 0.00 in0.0 mm 0.00 in0.0 mm 0.00 in0.0 mm
04:19 PM 79.3°F26.3°C 68.5°F20.3°C 52% 0.4 mph NNW0.6 kmh NNW 0.4 mph0.6 kmh 29.79 in1008.8 mb 0.00 in0.0 mm 0.00 in0.0 mm 0.00 in0.0 mm
04:22 PM 79.9°F26.6°C 69.1°F20.6°C 52% Calm Calm -- 29.79 in1008.8 mb 0.00 in0.0 mm 0.00 in0.0 mm 0.00 in0.0 mm
04:25 PM 80.9°F27.2°C 68.4°F20.2°C 51% 1.2 mph NNW1.9 kmh NNW 1.2 mph1.9 kmh 29.79 in1008.8 mb 0.00 in0.0 mm 0.00 in0.0 mm 0.00 in0.0 mm
04:28 PM 80.8°F27.1°C 70.6°F21.4°C 56% 3.6 mph E5.8 kmh E 3.7 mph6.0 kmh 29.79 in1008.8 mb 0.00 in0.0 mm 0.00 in0.0 mm 0.00 in0.0 mm
04:37 PM 79.4°F26.3°C 70.0°F21.1°C 55% Calm Calm -- 29.79 in1008.8 mb 0.00 in0.0 mm 0.00 in0.0 mm 0.00 in0.0 mm
04:39 PM 80.0°F26.7°C 69.3°F20.7°C 53% 2.8 mph ESE4.5 kmh ESE 2.9 mph4.7 kmh 29.79 in1008.8 mb 0.00 in0.0 mm 0.00 in0.0 mm 0.00 in0.0 mm
04:40 PM 80.2°F26.8°C 68.9°F20.5°C 53% 2.8 mph ESE4.5 kmh ESE 2.8 mph4.5 kmh 29.79 in1008.8 mb 0.00 in0.0 mm 0.00 in0.0 mm 0.00 in0.0 mm
04:43 PM 80.6°F27.0°C 69.0°F20.6°C 53% 1.6 mph SE2.6 kmh SE 1.6 mph2.6 kmh 29.79 in1008.8 mb 0.00 in0.0 mm 0.00 in0.0 mm 0.00 in0.0 mm
04:46 PM 80.8°F27.1°C 69.2°F20.7°C 53% 2.8 mph ESE4.5 kmh ESE 2.8 mph4.5 kmh 29.79 in1008.8 mb 0.00 in0.0 mm 0.00 in0.0 mm 0.00 in0.0 mm
04:49 PM 81.1°F27.3°C 69.5°F20.8°C 53% 1.2 mph ESE1.9 kmh ESE 1.2 mph1.9 kmh 29.79 in1008.8 mb 0.00 in0.0 mm 0.00 in0.0 mm 0.00 in0.0 mm
04:55 PM 79.7°F26.5°C 68.6°F20.3°C 52% 2.8 mph NE4.5 kmh NE 2.8 mph4.5 kmh 29.79 in1008.8 mb 0.00 in0.0 mm 0.00 in0.0 mm 0.00 in0.0 mm
04:58 PM 81.5°F27.5°C 70.6°F21.4°C 55% 1.2 mph ESE1.9 kmh ESE 1.2 mph1.9 kmh 29.78 in1008.5 mb 0.00 in0.0 mm 0.00 in0.0 mm 0.00 in0.0 mm
05:00 PM 80.7°F27.1°C 69.9°F21.1°C 55% 3.6 mph ESE5.8 kmh ESE 3.7 mph6.0 kmh 29.79 in1008.8 mb 0.00 in0.0 mm 0.00 in0.0 mm 0.00 in0.0 mm
05:01 PM 80.8°F27.1°C 68.9°F20.5°C 54% 4.8 mph SE7.7 kmh SE 4.8 mph7.7 kmh 29.78 in1008.5 mb 0.00 in0.0 mm 0.00 in0.0 mm 0.00 in0.0 mm
05:03 PM 78.4°F25.8°C 68.2°F20.1°C 55% 8.5 mph ESE13.7 kmh ESE 8.6 mph13.8 kmh 29.78 in1008.5 mb 0.00 in0.0 mm 0.00 in0.0 mm 0.00 in0.0 mm
05:04 PM 78.5°F25.8°C 68.7°F20.4°C 55% 7.3 mph ESE11.7 kmh ESE 7.3 mph11.7 kmh 29.78 in1008.5 mb 0.00 in0.0 mm 0.00 in0.0 mm 0.00 in0.0 mm
05:07 PM 77.8°F25.4°C 68.0°F20.0°C 56% 4.4 mph E7.1 kmh E 4.4 mph7.1 kmh 29.78 in1008.5 mb 0.00 in0.0 mm 0.00 in0.0 mm 0.00 in0.0 mm
05:09 PM 76.8°F24.9°C 69.6°F20.9°C 58% 3.2 mph E5.1 kmh E 3.3 mph5.3 kmh 29.78 in1008.5 mb 0.00 in0.0 mm 0.00 in0.0 mm 0.00 in0.0 mm
05:10 PM 76.9°F24.9°C 69.2°F20.7°C 58% 2.1 mph E3.4 kmh E 2.2 mph3.5 kmh 29.78 in1008.5 mb 0.00 in0.0 mm 0.00 in0.0 mm 0.00 in0.0 mm
05:13 PM 77.8°F25.4°C 68.2°F20.1°C 56% 4.8 mph SE7.7 kmh SE 4.9 mph7.9 kmh 29.78 in1008.5 mb 0.00 in0.0 mm 0.00 in0.0 mm 0.00 in0.0 mm
05:16 PM 78.2°F25.7°C 69.3°F20.7°C 58% 0.8 mph E1.3 kmh E 0.8 mph1.3 kmh 29.78 in1008.5 mb 0.00 in0.0 mm 0.00 in0.0 mm 0.00 in0.0 mm
05:18 PM 77.5°F25.3°C 68.0°F20.0°C 57% 3.6 mph ESE5.8 kmh ESE 3.7 mph6.0 kmh 29.78 in1008.5 mb 0.00 in0.0 mm 0.00 in0.0 mm 0.00 in0.0 mm
05:19 PM 77.7°F25.4°C 68.5°F20.3°C 57% 3.6 mph ESE5.8 kmh ESE 3.6 mph5.8 kmh 29.78 in1008.5 mb 0.00 in0.0 mm 0.00 in0.0 mm 0.00 in0.0 mm
05:21 PM 76.9°F24.9°C 69.3°F20.7°C 59% 0.8 mph E1.3 kmh E 0.8 mph1.3 kmh 29.78 in1008.5 mb 0.00 in0.0 mm 0.00 in0.0 mm 0.00 in0.0 mm
05:22 PM 77.0°F25.0°C 69.1°F20.6°C 59% 0.7 mph E1.1 kmh E 0.8 mph1.3 kmh 29.78 in1008.5 mb 0.00 in0.0 mm 0.00 in0.0 mm 0.00 in0.0 mm
05:25 PM 77.5°F25.3°C 67.8°F19.9°C 57% 3.2 mph E5.1 kmh E 3.3 mph5.3 kmh 29.78 in1008.5 mb 0.00 in0.0 mm 0.00 in0.0 mm 0.00 in0.0 mm
05:27 PM 77.9°F25.5°C 68.7°F20.4°C 57% 3.2 mph SE5.1 kmh SE 3.3 mph5.3 kmh 29.78 in1008.5 mb 0.00 in0.0 mm 0.00 in0.0 mm 0.00 in0.0 mm
05:28 PM 77.9°F25.5°C 67.8°F19.9°C 56% 2.3 mph ESE3.7 kmh ESE 2.5 mph4.0 kmh 29.77 in1008.1 mb 0.00 in0.0 mm 0.00 in0.0 mm 0.00 in0.0 mm
05:33 PM 77.1°F25.1°C 68.7°F20.4°C 57% 2.8 mph NE4.5 kmh NE 2.8 mph4.5 kmh 29.78 in1008.5 mb 0.00 in0.0 mm 0.00 in0.0 mm 0.00 in0.0 mm
05:34 PM 77.0°F25.0°C 67.8°F19.9°C 57% 2.5 mph E4.0 kmh E 2.7 mph4.3 kmh 29.79 in1008.8 mb 0.00 in0.0 mm 0.00 in0.0 mm 0.00 in0.0 mm
05:36 PM 76.2°F24.6°C 68.6°F20.3°C 58% 4.8 mph NE7.7 kmh NE 4.9 mph7.9 kmh 29.78 in1008.5 mb 0.00 in0.0 mm 0.00 in0.0 mm 0.00 in0.0 mm
05:37 PM 76.2°F24.6°C 68.1°F20.1°C 58% 4.4 mph NE7.1 kmh NE 4.6 mph7.4 kmh 29.78 in1008.5 mb 0.00 in0.0 mm 0.00 in0.0 mm 0.00 in0.0 mm
05:40 PM 76.1°F24.5°C 68.4°F20.2°C 57% 1.2 mph ESE1.9 kmh ESE 1.2 mph1.9 kmh 29.78 in1008.5 mb 0.00 in0.0 mm 0.00 in0.0 mm 0.00 in0.0 mm
05:43 PM 77.5°F25.3°C 68.5°F20.3°C 57% 2.8 mph ESE4.5 kmh ESE 2.8 mph4.5 kmh 29.78 in1008.5 mb 0.00 in0.0 mm 0.00 in0.0 mm 0.00 in0.0 mm
05:45 PM 77.2°F25.1°C 67.7°F19.8°C 56% 4.9 mph SE7.9 kmh SE 4.9 mph7.9 kmh 29.78 in1008.5 mb 0.00 in0.0 mm 0.00 in0.0 mm 0.00 in0.0 mm
05:46 PM 77.2°F25.1°C 67.5°F19.7°C 56% 5.0 mph SE8.0 kmh SE 5.0 mph8.0 kmh 29.79 in1008.8 mb 0.00 in0.0 mm 0.00 in0.0 mm 0.00 in0.0 mm
05:49 PM 76.7°F24.8°C 68.3°F20.2°C 58% 3.2 mph NE5.1 kmh NE 3.2 mph5.1 kmh 29.79 in1008.8 mb 0.00 in0.0 mm 0.00 in0.0 mm 0.00 in0.0 mm
05:51 PM 75.0°F23.9°C 66.7°F19.3°C 56% 3.6 mph SE5.8 kmh SE 3.7 mph6.0 kmh 29.79 in1008.8 mb 0.00 in0.0 mm 0.00 in0.0 mm 0.00 in0.0 mm
05:52 PM 75.0°F23.9°C 67.4°F19.7°C 57% 3.3 mph ESE5.3 kmh ESE 3.3 mph5.3 kmh 29.79 in1008.8 mb 0.00 in0.0 mm 0.00 in0.0 mm 0.00 in0.0 mm
05:54 PM 74.1°F23.4°C 67.7°F19.8°C 57% 4.8 mph NE7.7 kmh NE 4.9 mph7.9 kmh 29.79 in1008.8 mb 0.00 in0.0 mm 0.00 in0.0 mm 0.00 in0.0 mm
05:55 PM 74.1°F23.4°C 67.5°F19.7°C 57% 4.4 mph NE7.1 kmh NE 4.4 mph7.1 kmh 29.79 in1008.8 mb 0.00 in0.0 mm 0.00 in0.0 mm 0.00 in0.0 mm
05:58 PM 75.1°F23.9°C 67.2°F19.6°C 58% 1.2 mph E1.9 kmh E 1.2 mph1.9 kmh 29.79 in1008.8 mb 0.00 in0.0 mm 0.00 in0.0 mm 0.00 in0.0 mm
06:01 PM 75.7°F24.3°C 69.3°F20.7°C 60% 0.8 mph E1.3 kmh E 0.8 mph1.3 kmh 29.79 in1008.8 mb 0.00 in0.0 mm 0.00 in0.0 mm 0.00 in0.0 mm
06:04 PM 75.9°F24.4°C 68.1°F20.1°C 59% 0.4 mph NE0.6 kmh NE 0.4 mph0.6 kmh 29.79 in1008.8 mb 0.00 in0.0 mm 0.00 in0.0 mm 0.00 in0.0 mm
06:06 PM 76.4°F24.7°C 68.1°F20.1°C 58% 1.6 mph NE2.6 kmh NE 1.6 mph2.6 kmh 29.79 in1008.8 mb 0.00 in0.0 mm 0.00 in0.0 mm 0.00 in0.0 mm
06:07 PM 76.4°F24.7°C 68.6°F20.3°C 58% 2.0 mph 3.2 kmh 2.0 mph3.2 kmh 29.79 in1008.8 mb 0.00 in0.0 mm 0.00 in0.0 mm 0.00 in0.0 mm
06:10 PM 75.1°F23.9°C 68.7°F20.4°C 59% Calm Calm -- 29.79 in1008.8 mb 0.00 in0.0 mm 0.00 in0.0 mm 0.00 in0.0 mm
06:13 PM 75.0°F23.9°C 67.8°F19.9°C 59% 1.6 mph NE2.6 kmh NE 1.6 mph2.6 kmh 29.79 in1008.8 mb 0.00 in0.0 mm 0.00 in0.0 mm 0.00 in0.0 mm
06:16 PM 73.2°F22.9°C 67.5°F19.7°C 59% 8.8 mph NNE14.2 kmh NNE 8.8 mph14.2 kmh 29.79 in1008.8 mb 0.00 in0.0 mm 0.00 in0.0 mm 0.00 in0.0 mm
06:19 PM 72.6°F22.6°C 67.8°F19.9°C 60% 8.4 mph NE13.5 kmh NE 8.4 mph13.5 kmh 29.79 in1008.8 mb 0.00 in0.0 mm 0.00 in0.0 mm 0.00 in0.0 mm
06:25 PM 72.5°F22.5°C 67.7°F19.8°C 60% 4.9 mph NNW7.9 kmh NNW 4.9 mph7.9 kmh 29.79 in1008.8 mb 0.00 in0.0 mm 0.00 in0.0 mm 0.00 in0.0 mm
06:27 PM 73.4°F23.0°C 67.2°F19.6°C 61% 2.8 mph NE4.5 kmh NE 2.9 mph4.7 kmh 29.79 in1008.8 mb 0.00 in0.0 mm 0.00 in0.0 mm 0.00 in0.0 mm
06:28 PM 73.3°F22.9°C 66.8°F19.3°C 61% 3.0 mph NE4.8 kmh NE 3.0 mph4.8 kmh 29.79 in1008.8 mb 0.00 in0.0 mm 0.00 in0.0 mm 0.00 in0.0 mm
06:30 PM 72.3°F22.4°C 67.5°F19.7°C 60% 3.2 mph NE5.1 kmh NE 3.3 mph5.3 kmh 29.79 in1008.8 mb 0.00 in0.0 mm 0.00 in0.0 mm 0.00 in0.0 mm
06:31 PM 72.3°F22.4°C 66.7°F19.3°C 60% 3.3 mph NE5.3 kmh NE 3.3 mph5.3 kmh 29.79 in1008.8 mb 0.00 in0.0 mm 0.00 in0.0 mm 0.00 in0.0 mm
06:37 PM 71.7°F22.1°C 66.2°F19.0°C 60% 7.6 mph NE12.2 kmh NE 7.6 mph12.2 kmh 29.79 in1008.8 mb 0.00 in0.0 mm 0.00 in0.0 mm 0.00 in0.0 mm
06:39 PM 71.8°F22.1°C 66.6°F19.2°C 61% 3.6 mph NE5.8 kmh NE 3.7 mph6.0 kmh 29.79 in1008.8 mb 0.00 in0.0 mm 0.00 in0.0 mm 0.00 in0.0 mm
06:40 PM 71.9°F22.2°C 67.1°F19.5°C 61% 3.3 mph NE5.3 kmh NE 3.3 mph5.3 kmh 29.79 in1008.8 mb 0.00 in0.0 mm 0.00 in0.0 mm 0.00 in0.0 mm
06:43 PM 72.1°F22.3°C 67.2°F19.6°C 61% 0.8 mph NE1.3 kmh NE 0.8 mph1.3 kmh 29.79 in1008.8 mb 0.00 in0.0 mm 0.00 in0.0 mm 0.00 in0.0 mm
06:46 PM 72.1°F22.3°C 67.2°F19.6°C 61% 1.2 mph NE1.9 kmh NE 1.2 mph1.9 kmh 29.79 in1008.8 mb 0.00 in0.0 mm 0.00 in0.0 mm 0.00 in0.0 mm
06:49 PM 71.7°F22.1°C 66.9°F19.4°C 60% Calm Calm -- 29.79 in1008.8 mb 0.00 in0.0 mm 0.00 in0.0 mm 0.00 in0.0 mm
06:52 PM 71.4°F21.9°C 66.9°F19.4°C 61% 2.0 mph NNE3.2 kmh NNE 2.0 mph3.2 kmh 29.79 in1008.8 mb 0.00 in0.0 mm 0.00 in0.0 mm 0.00 in0.0 mm
06:55 PM 71.7°F22.1°C 66.1°F18.9°C 61% 0.8 mph E1.3 kmh E 0.8 mph1.3 kmh 29.79 in1008.8 mb 0.00 in0.0 mm 0.00 in0.0 mm 0.00 in0.0 mm
06:57 PM 71.5°F21.9°C 65.7°F18.7°C 61% 0.4 mph NE0.6 kmh NE 0.4 mph0.6 kmh 29.79 in1008.8 mb 0.00 in0.0 mm 0.00 in0.0 mm 0.00 in0.0 mm
06:58 PM 71.4°F21.9°C 66.4°F19.1°C 60% 0.3 mph NE0.5 kmh NE 0.3 mph0.5 kmh 29.79 in1008.8 mb 0.00 in0.0 mm 0.00 in0.0 mm 0.00 in0.0 mm
07:01 PM 71.8°F22.1°C 66.4°F19.1°C 60% Calm Calm -- 29.79 in1008.8 mb 0.00 in0.0 mm 0.00 in0.0 mm 0.00 in0.0 mm
07:04 PM 72.1°F22.3°C 66.2°F19.0°C 61% 0.4 mph NNW0.6 kmh NNW 0.4 mph0.6 kmh 29.78 in1008.5 mb 0.00 in0.0 mm 0.00 in0.0 mm 0.00 in0.0 mm
07:06 PM 71.3°F21.8°C 66.3°F19.1°C 60% 3.2 mph NE5.1 kmh NE 3.3 mph5.3 kmh 29.79 in1008.8 mb 0.00 in0.0 mm 0.00 in0.0 mm 0.00 in0.0 mm
07:07 PM 71.3°F21.8°C 66.4°F19.1°C 60% 2.6 mph NNE4.2 kmh NNE 2.6 mph4.2 kmh 29.78 in1008.5 mb 0.00 in0.0 mm 0.00 in0.0 mm 0.00 in0.0 mm
07:09 PM 71.4°F21.9°C 67.0°F19.4°C 62% 0.8 mph E1.3 kmh E 0.8 mph1.3 kmh 29.78 in1008.5 mb 0.00 in0.0 mm 0.00 in0.0 mm 0.00 in0.0 mm
07:10 PM 71.4°F21.9°C 67.2°F19.6°C 62% 0.5 mph E0.8 kmh E 0.5 mph0.8 kmh 29.78 in1008.5 mb 0.00 in0.0 mm 0.00 in0.0 mm 0.00 in0.0 mm
07:13 PM 71.4°F21.9°C 66.7°F19.3°C 62% Calm Calm -- 29.78 in1008.5 mb 0.00 in0.0 mm 0.00 in0.0 mm 0.00 in0.0 mm
07:16 PM 71.3°F21.8°C 67.2°F19.6°C 63% Calm Calm -- 29.78 in1008.5 mb 0.00 in0.0 mm 0.00 in0.0 mm 0.00 in0.0 mm
07:19 PM 71.0°F21.7°C 66.2°F19.0°C 63% 0.8 mph ESE1.3 kmh ESE 0.8 mph1.3 kmh 29.78 in1008.5 mb 0.00 in0.0 mm 0.00 in0.0 mm 0.00 in0.0 mm
07:22 PM 71.0°F21.7°C 66.7°F19.3°C 62% 2.4 mph E3.9 kmh E 2.5 mph4.0 kmh 29.78 in1008.5 mb 0.00 in0.0 mm 0.00 in0.0 mm 0.00 in0.0 mm
07:25 PM 70.8°F21.6°C 65.5°F18.6°C 60% 4.4 mph NNW7.1 kmh NNW 4.4 mph7.1 kmh 29.78 in1008.5 mb 0.00 in0.0 mm 0.00 in0.0 mm 0.00 in0.0 mm
07:27 PM 70.7°F21.5°C 64.9°F18.3°C 61% 5.6 mph WSW9.0 kmh WSW 5.7 mph9.2 kmh 29.78 in1008.5 mb 0.00 in0.0 mm 0.00 in0.0 mm 0.00 in0.0 mm
07:28 PM 70.7°F21.5°C 65.9°F18.8°C 61% 5.3 mph WSW8.5 kmh WSW 5.3 mph8.5 kmh 29.77 in1008.1 mb 0.00 in0.0 mm 0.00 in0.0 mm 0.00 in0.0 mm
07:31 PM 70.1°F21.2°C 65.8°F18.8°C 62% Calm Calm -- 29.78 in1008.5 mb 0.00 in0.0 mm 0.00 in0.0 mm 0.00 in0.0 mm
07:33 PM 70.5°F21.4°C 64.8°F18.2°C 61% 3.2 mph SE5.1 kmh SE 3.3 mph5.3 kmh 29.78 in1008.5 mb 0.00 in0.0 mm 0.00 in0.0 mm 0.00 in0.0 mm
07:34 PM 70.6°F21.4°C 64.4°F18.0°C 61% 4.4 mph SE7.1 kmh SE 4.4 mph7.1 kmh 29.78 in1008.5 mb 0.00 in0.0 mm 0.00 in0.0 mm 0.00 in0.0 mm
07:37 PM 70.3°F21.3°C 65.2°F18.4°C 61% 2.8 mph ESE4.5 kmh ESE 2.8 mph4.5 kmh 29.78 in1008.5 mb 0.00 in0.0 mm 0.00 in0.0 mm 0.00 in0.0 mm
07:40 PM 70.0°F21.1°C 66.4°F19.1°C 63% 1.6 mph SSW2.6 kmh SSW 1.6 mph2.6 kmh 29.78 in1008.5 mb 0.00 in0.0 mm 0.00 in0.0 mm 0.00 in0.0 mm
07:42 PM 69.7°F20.9°C 65.9°F18.8°C 63% 2.4 mph SW3.9 kmh SW 2.5 mph4.0 kmh 29.78 in1008.5 mb 0.00 in0.0 mm 0.00 in0.0 mm 0.00 in0.0 mm
07:43 PM 69.7°F20.9°C 65.8°F18.8°C 63% 2.6 mph WSW4.2 kmh WSW 2.6 mph4.2 kmh 29.78 in1008.5 mb 0.00 in0.0 mm 0.00 in0.0 mm 0.00 in0.0 mm
07:45 PM 69.6°F20.9°C 66.1°F18.9°C 63% 2.4 mph WSW3.9 kmh WSW 2.5 mph4.0 kmh 29.79 in1008.8 mb 0.00 in0.0 mm 0.00 in0.0 mm 0.00 in0.0 mm
07:46 PM 69.7°F20.9°C 66.5°F19.2°C 63% 1.7 mph WSW2.7 kmh WSW 1.7 mph2.7 kmh 29.78 in1008.5 mb 0.00 in0.0 mm 0.00 in0.0 mm 0.00 in0.0 mm
07:48 PM 69.9°F21.1°C 65.7°F18.7°C 63% 2.0 mph NW3.2 kmh NW 2.0 mph3.2 kmh 29.78 in1008.5 mb 0.00 in0.0 mm 0.00 in0.0 mm 0.00 in0.0 mm
07:49 PM 69.8°F21.0°C 66.5°F19.2°C 63% 2.5 mph W4.0 kmh W 2.5 mph4.0 kmh 29.79 in1008.8 mb 0.00 in0.0 mm 0.00 in0.0 mm 0.00 in0.0 mm
07:51 PM 69.9°F21.1°C 64.9°F18.3°C 63% 2.8 mph NE4.5 kmh NE 2.8 mph4.5 kmh 29.78 in1008.5 mb 0.00 in0.0 mm 0.00 in0.0 mm 0.00 in0.0 mm
07:52 PM 70.0°F21.1°C 64.9°F18.3°C 63% 2.9 mph NE4.7 kmh NE 2.9 mph4.7 kmh 29.78 in1008.5 mb 0.00 in0.0 mm 0.00 in0.0 mm 0.00 in0.0 mm
07:55 PM 70.1°F21.2°C 64.7°F18.2°C 62% Calm Calm -- 29.78 in1008.5 mb 0.00 in0.0 mm 0.00 in0.0 mm 0.00 in0.0 mm
07:58 PM 70.0°F21.1°C 66.0°F18.9°C 64% 5.3 mph NNW8.5 kmh NNW 5.3 mph8.5 kmh 29.78 in1008.5 mb 0.00 in0.0 mm 0.00 in0.0 mm 0.00 in0.0 mm
08:01 PM 70.1°F21.2°C 65.8°F18.8°C 62% 1.6 mph NW2.6 kmh NW 1.6 mph2.6 kmh 29.78 in1008.5 mb 0.00 in0.0 mm 0.00 in0.0 mm 0.00 in0.0 mm
08:04 PM 70.0°F21.1°C 65.0°F18.3°C 63% 1.6 mph 2.6 kmh 1.6 mph2.6 kmh 29.78 in1008.5 mb 0.00 in0.0 mm 0.00 in0.0 mm 0.00 in0.0 mm
08:07 PM 70.0°F21.1°C 66.1°F18.9°C 63% 4.0 mph NNW6.4 kmh NNW 4.1 mph6.6 kmh 29.78 in1008.5 mb 0.00 in0.0 mm 0.00 in0.0 mm 0.00 in0.0 mm
08:09 PM 69.5°F20.8°C 65.1°F18.4°C 63% 6.8 mph NE10.9 kmh NE 6.8 mph10.9 kmh 29.78 in1008.5 mb 0.00 in0.0 mm 0.00 in0.0 mm 0.00 in0.0 mm
08:10 PM 69.6°F20.9°C 65.8°F18.8°C 63% 6.8 mph NE10.9 kmh NE 6.8 mph10.9 kmh 29.77 in1008.1 mb 0.00 in0.0 mm 0.00 in0.0 mm 0.00 in0.0 mm
08:13 PM 69.7°F20.9°C 65.7°F18.7°C 64% Calm Calm -- 29.78 in1008.5 mb 0.00 in0.0 mm 0.00 in0.0 mm 0.00 in0.0 mm
08:16 PM 69.6°F20.9°C 64.8°F18.2°C 63% Calm Calm -- 29.78 in1008.5 mb 0.00 in0.0 mm 0.00 in0.0 mm 0.00 in0.0 mm
08:19 PM 69.7°F20.9°C 65.6°F18.7°C 63% 0.8 mph 1.3 kmh 0.8 mph1.3 kmh 29.78 in1008.5 mb 0.00 in0.0 mm 0.00 in0.0 mm 0.00 in0.0 mm
08:22 PM 69.4°F20.8°C 65.1°F18.4°C 64% 2.4 mph 3.9 kmh 2.4 mph3.9 kmh 29.78 in1008.5 mb 0.00 in0.0 mm 0.00 in0.0 mm 0.00 in0.0 mm
08:25 PM 68.9°F20.5°C 66.3°F19.1°C 65% Calm Calm -- 29.78 in1008.5 mb 0.00 in0.0 mm 0.00 in0.0 mm 0.00 in0.0 mm
08:28 PM 68.7°F20.4°C 65.7°F18.7°C 65% 0.8 mph WSW1.3 kmh WSW 0.8 mph1.3 kmh 29.78 in1008.5 mb 0.00 in0.0 mm 0.00 in0.0 mm 0.00 in0.0 mm
08:30 PM 68.8°F20.4°C 65.3°F18.5°C 65% 2.0 mph WSW3.2 kmh WSW 2.0 mph3.2 kmh 29.78 in1008.5 mb 0.00 in0.0 mm 0.00 in0.0 mm 0.00 in0.0 mm
08:31 PM 68.9°F20.5°C 65.2°F18.4°C 65% 2.1 mph WSW3.4 kmh WSW 2.1 mph3.4 kmh 29.78 in1008.5 mb 0.00 in0.0 mm 0.00 in0.0 mm 0.00 in0.0 mm
08:33 PM 68.9°F20.5°C 65.5°F18.6°C 65% 1.2 mph SW1.9 kmh SW 1.2 mph1.9 kmh 29.78 in1008.5 mb 0.00 in0.0 mm 0.00 in0.0 mm 0.00 in0.0 mm
08:34 PM 68.9°F20.5°C 65.1°F18.4°C 65% 0.9 mph SW1.4 kmh SW 0.9 mph1.4 kmh 29.78 in1008.5 mb 0.00 in0.0 mm 0.00 in0.0 mm 0.00 in0.0 mm
08:37 PM 68.9°F20.5°C 65.4°F18.6°C 65% 2.0 mph NNW3.2 kmh NNW 2.0 mph3.2 kmh 29.77 in1008.1 mb 0.00 in0.0 mm 0.00 in0.0 mm 0.00 in0.0 mm
08:40 PM 68.8°F20.4°C 65.0°F18.3°C 65% Calm Calm -- 29.77 in1008.1 mb 0.00 in0.0 mm 0.00 in0.0 mm 0.00 in0.0 mm
08:43 PM 69.2°F20.7°C 64.7°F18.2°C 64% Calm Calm -- 29.77 in1008.1 mb 0.00 in0.0 mm 0.00 in0.0 mm 0.00 in0.0 mm
08:46 PM 69.1°F20.6°C 64.6°F18.1°C 64% 4.8 mph NNW7.7 kmh NNW 4.8 mph7.7 kmh 29.78 in1008.5 mb 0.00 in0.0 mm 0.00 in0.0 mm 0.00 in0.0 mm
08:49 PM 68.6°F20.3°C 65.6°F18.7°C 65% 1.2 mph NNW1.9 kmh NNW 1.2 mph1.9 kmh 29.77 in1008.1 mb 0.00 in0.0 mm 0.00 in0.0 mm 0.00 in0.0 mm
08:51 PM 68.5°F20.3°C 65.1°F18.4°C 65% Calm Calm -- 29.77 in1008.1 mb 0.00 in0.0 mm 0.00 in0.0 mm 0.00 in0.0 mm
08:52 PM 68.5°F20.3°C 64.6°F18.1°C 65% Calm Calm -- 29.77 in1008.1 mb 0.00 in0.0 mm 0.00 in0.0 mm 0.00 in0.0 mm
08:54 PM 67.8°F19.9°C 65.1°F18.4°C 65% 0.4 mph 0.6 kmh 0.4 mph0.6 kmh 29.77 in1008.1 mb 0.00 in0.0 mm 0.00 in0.0 mm 0.00 in0.0 mm
08:55 PM 67.8°F19.9°C 65.1°F18.4°C 65% 0.2 mph 0.3 kmh 0.3 mph0.5 kmh 29.77 in1008.1 mb 0.00 in0.0 mm 0.00 in0.0 mm 0.00 in0.0 mm
08:58 PM 67.9°F19.9°C 64.9°F18.3°C 66% Calm Calm -- 29.77 in1008.1 mb 0.00 in0.0 mm 0.00 in0.0 mm 0.00 in0.0 mm
09:00 PM 67.9°F19.9°C 65.8°F18.8°C 65% Calm Calm -- 29.77 in1008.1 mb 0.00 in0.0 mm 0.00 in0.0 mm 0.00 in0.0 mm
09:01 PM 67.9°F19.9°C 64.8°F18.2°C 65% Calm Calm -- 29.77 in1008.1 mb 0.00 in0.0 mm 0.00 in0.0 mm 0.00 in0.0 mm
09:04 PM 67.7°F19.8°C 64.8°F18.2°C 66% 1.6 mph NNW2.6 kmh NNW 1.6 mph2.6 kmh 29.77 in1008.1 mb 0.00 in0.0 mm 0.00 in0.0 mm 0.00 in0.0 mm
09:07 PM 67.7°F19.8°C 65.0°F18.3°C 66% 1.2 mph NNE1.9 kmh NNE 1.2 mph1.9 kmh 29.77 in1008.1 mb 0.00 in0.0 mm 0.00 in0.0 mm 0.00 in0.0 mm
09:10 PM 67.8°F19.9°C 65.2°F18.4°C 66% 1.6 mph NE2.6 kmh NE 1.6 mph2.6 kmh 29.77 in1008.1 mb 0.00 in0.0 mm 0.00 in0.0 mm 0.00 in0.0 mm
09:12 PM 67.6°F19.8°C 64.7°F18.2°C 66% 2.4 mph NNE3.9 kmh NNE 2.4 mph3.9 kmh 29.77 in1008.1 mb 0.00 in0.0 mm 0.00 in0.0 mm 0.00 in0.0 mm
09:13 PM 67.4°F19.7°C 64.8°F18.2°C 66% 1.9 mph NNE3.1 kmh NNE 1.9 mph3.1 kmh 29.77 in1008.1 mb 0.00 in0.0 mm 0.00 in0.0 mm 0.00 in0.0 mm
09:15 PM 67.4°F19.7°C 65.2°F18.4°C 67% 2.0 mph 3.2 kmh 2.0 mph3.2 kmh 29.77 in1008.1 mb 0.00 in0.0 mm 0.00 in0.0 mm 0.00 in0.0 mm
09:16 PM 67.4°F19.7°C 64.6°F18.1°C 66% 2.1 mph 3.4 kmh 2.1 mph3.4 kmh 29.77 in1008.1 mb 0.00 in0.0 mm 0.00 in0.0 mm 0.00 in0.0 mm
09:19 PM 67.4°F19.7°C 64.5°F18.1°C 66% 2.0 mph NNE3.2 kmh NNE 2.0 mph3.2 kmh 29.77 in1008.1 mb 0.00 in0.0 mm 0.00 in0.0 mm 0.00 in0.0 mm
09:22 PM 67.3°F19.6°C 64.7°F18.2°C 66% 0.4 mph NNW0.6 kmh NNW 0.4 mph0.6 kmh 29.77 in1008.1 mb 0.00 in0.0 mm 0.00 in0.0 mm 0.00 in0.0 mm
09:25 PM 67.4°F19.7°C 65.5°F18.6°C 66% Calm Calm -- 29.77 in1008.1 mb 0.00 in0.0 mm 0.00 in0.0 mm 0.00 in0.0 mm
09:31 PM 67.7°F19.8°C 64.6°F18.1°C 67% Calm Calm -- 29.77 in1008.1 mb 0.00 in0.0 mm 0.00 in0.0 mm 0.00 in0.0 mm
09:34 PM 67.1°F19.5°C 64.6°F18.1°C 67% 0.4 mph NNW0.6 kmh NNW 0.4 mph0.6 kmh 29.77 in1008.1 mb 0.00 in0.0 mm 0.00 in0.0 mm 0.00 in0.0 mm
09:37 PM 66.7°F19.3°C 65.1°F18.4°C 67% 1.6 mph E2.6 kmh E 1.6 mph2.6 kmh 29.77 in1008.1 mb 0.00 in0.0 mm 0.00 in0.0 mm 0.00 in0.0 mm
09:40 PM 66.2°F19.0°C 65.6°F18.7°C 68% 0.4 mph NE0.6 kmh NE 0.4 mph0.6 kmh 29.76 in1007.8 mb 0.00 in0.0 mm 0.00 in0.0 mm 0.00 in0.0 mm
09:42 PM 66.0°F18.9°C 65.7°F18.7°C 69% Calm Calm -- 29.76 in1007.8 mb 0.00 in0.0 mm 0.00 in0.0 mm 0.00 in0.0 mm
09:43 PM 66.0°F18.9°C 66.0°F18.9°C 69% Calm Calm -- 29.76 in1007.8 mb 0.00 in0.0 mm 0.00 in0.0 mm 0.00 in0.0 mm
09:46 PM 65.5°F18.6°C 65.4°F18.6°C 69% 3.6 mph SE5.8 kmh SE 3.6 mph5.8 kmh 29.77 in1008.1 mb 0.00 in0.0 mm 0.00 in0.0 mm 0.00 in0.0 mm
09:48 PM 66.1°F18.9°C 65.2°F18.4°C 69% 0.4 mph SE0.6 kmh SE 0.4 mph0.6 kmh 29.78 in1008.5 mb 0.00 in0.0 mm 0.00 in0.0 mm 0.00 in0.0 mm
09:49 PM 66.2°F19.0°C 65.1°F18.4°C 69% 0.5 mph SE0.8 kmh SE 0.5 mph0.8 kmh 29.78 in1008.5 mb 0.00 in0.0 mm 0.00 in0.0 mm 0.00 in0.0 mm
09:52 PM 66.2°F19.0°C 65.3°F18.5°C 69% 1.2 mph SE1.9 kmh SE 1.2 mph1.9 kmh 29.79 in1008.8 mb 0.00 in0.0 mm 0.00 in0.0 mm 0.00 in0.0 mm
09:55 PM 66.2°F19.0°C 65.3°F18.5°C 71% 0.8 mph SE1.3 kmh SE 0.8 mph1.3 kmh 29.78 in1008.5 mb 0.00 in0.0 mm 0.00 in0.0 mm 0.00 in0.0 mm
09:58 PM 65.8°F18.8°C 65.6°F18.7°C 71% 2.4 mph NNE3.9 kmh NNE 2.4 mph3.9 kmh 29.78 in1008.5 mb 0.00 in0.0 mm 0.00 in0.0 mm 0.00 in0.0 mm
10:01 PM 65.9°F18.8°C 64.9°F18.3°C 71% 0.4 mph NNE0.6 kmh NNE 0.4 mph0.6 kmh 29.77 in1008.1 mb 0.00 in0.0 mm 0.00 in0.0 mm 0.00 in0.0 mm
10:03 PM 66.0°F18.9°C 65.6°F18.7°C 71% Calm Calm -- 29.77 in1008.1 mb 0.00 in0.0 mm 0.00 in0.0 mm 0.00 in0.0 mm
10:04 PM 66.0°F18.9°C 65.2°F18.4°C 71% Calm Calm -- 29.77 in1008.1 mb 0.00 in0.0 mm 0.00 in0.0 mm 0.00 in0.0 mm
10:07 PM 66.5°F19.2°C 65.0°F18.3°C 70% 0.4 mph SE0.6 kmh SE 0.4 mph0.6 kmh 29.77 in1008.1 mb 0.00 in0.0 mm 0.00 in0.0 mm 0.00 in0.0 mm
10:10 PM 66.1°F18.9°C 65.5°F18.6°C 71% 2.9 mph ESE4.7 kmh ESE 2.9 mph4.7 kmh 29.77 in1008.1 mb 0.00 in0.0 mm 0.00 in0.0 mm 0.00 in0.0 mm
10:12 PM 66.3°F19.1°C 65.2°F18.4°C 71% Calm Calm -- 29.77 in1008.1 mb 0.00 in0.0 mm 0.00 in0.0 mm 0.00 in0.0 mm
10:13 PM 66.4°F19.1°C 64.8°F18.2°C 71% Calm Calm -- 29.77 in1008.1 mb 0.00 in0.0 mm 0.00 in0.0 mm 0.00 in0.0 mm
10:16 PM 65.6°F18.7°C 64.8°F18.2°C 71% 1.6 mph E2.6 kmh E 1.6 mph2.6 kmh 29.77 in1008.1 mb 0.00 in0.0 mm 0.00 in0.0 mm 0.00 in0.0 mm
10:18 PM 65.8°F18.8°C 65.2°F18.4°C 71% 1.6 mph NNE2.6 kmh NNE 1.6 mph2.6 kmh 29.77 in1008.1 mb 0.00 in0.0 mm 0.00 in0.0 mm 0.00 in0.0 mm
10:19 PM 65.8°F18.8°C 65.1°F18.4°C 71% 1.6 mph NNE2.6 kmh NNE 1.6 mph2.6 kmh 29.77 in1008.1 mb 0.00 in0.0 mm 0.00 in0.0 mm 0.00 in0.0 mm
10:22 PM 65.5°F18.6°C 64.8°F18.2°C 71% 1.2 mph NNE1.9 kmh NNE 1.2 mph1.9 kmh 29.77 in1008.1 mb 0.00 in0.0 mm 0.00 in0.0 mm 0.00 in0.0 mm
10:24 PM 65.8°F18.8°C 65.0°F18.3°C 71% 3.2 mph NW5.1 kmh NW 3.2 mph5.1 kmh 29.77 in1008.1 mb 0.00 in0.0 mm 0.00 in0.0 mm 0.00 in0.0 mm
10:25 PM 65.6°F18.7°C 65.1°F18.4°C 71% 2.6 mph NW4.2 kmh NW 2.6 mph4.2 kmh 29.77 in1008.1 mb 0.00 in0.0 mm 0.00 in0.0 mm 0.00 in0.0 mm
10:28 PM 65.8°F18.8°C 64.9°F18.3°C 71% 3.2 mph NNW5.1 kmh NNW 3.3 mph5.3 kmh 29.77 in1008.1 mb 0.00 in0.0 mm 0.00 in0.0 mm 0.00 in0.0 mm
10:30 PM 66.1°F18.9°C 65.0°F18.3°C 71% 3.6 mph NNW5.8 kmh NNW 3.7 mph6.0 kmh 29.76 in1007.8 mb 0.00 in0.0 mm 0.00 in0.0 mm 0.00 in0.0 mm
10:31 PM 66.1°F18.9°C 64.8°F18.2°C 71% 3.2 mph 5.1 kmh 3.2 mph5.1 kmh 29.75 in1007.5 mb 0.00 in0.0 mm 0.00 in0.0 mm 0.00 in0.0 mm
10:33 PM 65.8°F18.8°C 64.5°F18.1°C 71% 1.6 mph 2.6 kmh 1.6 mph2.6 kmh 29.75 in1007.5 mb 0.00 in0.0 mm 0.00 in0.0 mm 0.00 in0.0 mm
10:34 PM 65.8°F18.8°C 64.8°F18.2°C 71% 2.7 mph 4.3 kmh 2.7 mph4.3 kmh 29.75 in1007.5 mb 0.00 in0.0 mm 0.00 in0.0 mm 0.00 in0.0 mm
10:36 PM 65.4°F18.6°C 64.2°F17.9°C 71% 2.0 mph 3.2 kmh 2.0 mph3.2 kmh 29.76 in1007.8 mb 0.00 in0.0 mm 0.00 in0.0 mm 0.00 in0.0 mm
10:37 PM 65.3°F18.5°C 64.8°F18.2°C 71% 1.9 mph 3.1 kmh 1.9 mph3.1 kmh 29.76 in1007.8 mb 0.00 in0.0 mm 0.00 in0.0 mm 0.00 in0.0 mm
10:40 PM 65.6°F18.7°C 64.6°F18.1°C 71% 5.6 mph 9.0 kmh 5.6 mph9.0 kmh 29.75 in1007.5 mb 0.00 in0.0 mm 0.00 in0.0 mm 0.00 in0.0 mm
10:42 PM 65.6°F18.7°C 64.6°F18.1°C 72% 4.0 mph 6.4 kmh 4.1 mph6.6 kmh 29.75 in1007.5 mb 0.00 in0.0 mm 0.00 in0.0 mm 0.00 in0.0 mm
10:43 PM 65.6°F18.7°C 64.5°F18.1°C 72% 5.1 mph 8.2 kmh 5.2 mph8.4 kmh 29.75 in1007.5 mb 0.00 in0.0 mm 0.00 in0.0 mm 0.00 in0.0 mm
10:46 PM 65.6°F18.7°C 64.3°F17.9°C 72% 3.6 mph NNE5.8 kmh NNE 3.6 mph5.8 kmh 29.75 in1007.5 mb 0.00 in0.0 mm 0.00 in0.0 mm 0.00 in0.0 mm
10:49 PM 65.3°F18.5°C 64.4°F18.0°C 72% 4.4 mph NNE7.1 kmh NNE 4.5 mph7.2 kmh 29.75 in1007.5 mb 0.00 in0.0 mm 0.00 in0.0 mm 0.00 in0.0 mm
10:52 PM 65.1°F18.4°C 64.1°F17.8°C 73% 3.2 mph NNE5.1 kmh NNE 3.2 mph5.1 kmh 29.75 in1007.5 mb 0.00 in0.0 mm 0.00 in0.0 mm 0.00 in0.0 mm
10:55 PM 65.4°F18.6°C 64.4°F18.0°C 73% 4.0 mph NNE6.4 kmh NNE 4.0 mph6.4 kmh 29.76 in1007.8 mb 0.00 in0.0 mm 0.00 in0.0 mm 0.00 in0.0 mm
10:58 PM 65.3°F18.5°C 64.7°F18.2°C 73% 3.2 mph NNW5.1 kmh NNW 3.3 mph5.3 kmh 29.75 in1007.5 mb 0.00 in0.0 mm 0.00 in0.0 mm 0.00 in0.0 mm
11:01 PM 65.1°F18.4°C 64.0°F17.8°C 72% 2.3 mph NW3.7 kmh NW 2.3 mph3.7 kmh 29.75 in1007.5 mb 0.00 in0.0 mm 0.00 in0.0 mm 0.00 in0.0 mm
11:03 PM 65.4°F18.6°C 64.3°F17.9°C 73% Calm Calm -- 29.75 in1007.5 mb 0.00 in0.0 mm 0.00 in0.0 mm 0.00 in0.0 mm
11:04 PM 65.3°F18.5°C 64.5°F18.1°C 73% 0.9 mph ENE1.4 kmh ENE 1.0 mph1.6 kmh 29.75 in1007.5 mb 0.00 in0.0 mm 0.00 in0.0 mm 0.00 in0.0 mm
11:07 PM 64.4°F18.0°C 64.1°F17.8°C 72% 1.6 mph E2.6 kmh E 1.6 mph2.6 kmh 29.75 in1007.5 mb 0.00 in0.0 mm 0.00 in0.0 mm 0.00 in0.0 mm
11:10 PM 65.2°F18.4°C 64.2°F17.9°C 73% 10.3 mph NNW16.6 kmh NNW 10.4 mph16.7 kmh 29.75 in1007.5 mb 0.00 in0.0 mm 0.00 in0.0 mm 0.00 in0.0 mm
11:13 PM 65.5°F18.6°C 63.9°F17.7°C 74% 12.1 mph NNW19.5 kmh NNW 12.2 mph19.6 kmh 29.75 in1007.5 mb 0.00 in0.0 mm 0.00 in0.0 mm 0.00 in0.0 mm
11:16 PM 65.3°F18.5°C 64.0°F17.8°C 75% 7.2 mph NNW11.6 kmh NNW 7.2 mph11.6 kmh 29.75 in1007.5 mb 0.00 in0.0 mm 0.00 in0.0 mm 0.00 in0.0 mm
11:18 PM 65.1°F18.4°C 64.1°F17.8°C 75% 1.6 mph ENE2.6 kmh ENE 1.6 mph2.6 kmh 29.75 in1007.5 mb 0.00 in0.0 mm 0.00 in0.0 mm 0.00 in0.0 mm
11:19 PM 65.1°F18.4°C 64.1°F17.8°C 75% 4.5 mph ENE7.2 kmh ENE 4.6 mph7.4 kmh 29.75 in1007.5 mb 0.00 in0.0 mm 0.00 in0.0 mm 0.00 in0.0 mm
11:22 PM 65.3°F18.5°C 63.7°F17.6°C 75% 16.5 mph NE26.6 kmh NE 16.5 mph26.6 kmh 29.75 in1007.5 mb 0.00 in0.0 mm 0.00 in0.0 mm 0.00 in0.0 mm
11:24 PM 65.2°F18.4°C 63.9°F17.7°C 76% 11.0 mph NE17.7 kmh NE 11.0 mph17.7 kmh 29.75 in1007.5 mb 0.00 in0.0 mm 0.00 in0.0 mm 0.00 in0.0 mm
11:25 PM 65.3°F18.5°C 63.8°F17.7°C 75% 9.8 mph NE15.8 kmh NE 9.8 mph15.8 kmh 29.75 in1007.5 mb 0.00 in0.0 mm 0.00 in0.0 mm 0.00 in0.0 mm
11:28 PM 65.4°F18.6°C 63.7°F17.6°C 75% 6.1 mph NNW9.8 kmh NNW 6.1 mph9.8 kmh 29.75 in1007.5 mb 0.00 in0.0 mm 0.00 in0.0 mm 0.00 in0.0 mm
11:30 PM 65.0°F18.3°C 64.2°F17.9°C 75% 5.3 mph WNW8.5 kmh WNW 5.3 mph8.5 kmh 29.76 in1007.8 mb 0.00 in0.0 mm 0.00 in0.0 mm 0.00 in0.0 mm
11:31 PM 65.0°F18.3°C 64.1°F17.8°C 75% 4.9 mph W7.9 kmh W 4.9 mph7.9 kmh 29.76 in1007.8 mb 0.00 in0.0 mm 0.00 in0.0 mm 0.00 in0.0 mm
11:34 PM 64.9°F18.3°C 64.1°F17.8°C 75% 0.4 mph ENE0.6 kmh ENE 0.4 mph0.6 kmh 29.77 in1008.1 mb 0.00 in0.0 mm 0.00 in0.0 mm 0.00 in0.0 mm
11:37 PM 64.9°F18.3°C 64.4°F18.0°C 75% 2.8 mph 4.5 kmh 2.9 mph4.7 kmh 29.77 in1008.1 mb 0.00 in0.0 mm 0.00 in0.0 mm 0.00 in0.0 mm
11:40 PM 64.9°F18.3°C 64.0°F17.8°C 75% 4.0 mph NNW6.4 kmh NNW 4.1 mph6.6 kmh 29.77 in1008.1 mb 0.00 in0.0 mm 0.00 in0.0 mm 0.00 in0.0 mm
11:43 PM 64.4°F18.0°C 63.9°F17.7°C 74% 1.2 mph NNW1.9 kmh NNW 1.2 mph1.9 kmh 29.77 in1008.1 mb 0.00 in0.0 mm 0.00 in0.0 mm 0.00 in0.0 mm
11:49 PM 64.9°F18.3°C 63.8°F17.7°C 75% 14.3 mph NE23.0 kmh NE 14.3 mph23.0 kmh 29.77 in1008.1 mb 0.00 in0.0 mm 0.00 in0.0 mm 0.00 in0.0 mm
11:51 PM 64.7°F18.2°C 64.1°F17.8°C 75% 2.8 mph NNE4.5 kmh NNE 2.9 mph4.7 kmh 29.77 in1008.1 mb 0.00 in0.0 mm 0.00 in0.0 mm 0.00 in0.0 mm
11:52 PM 64.7°F18.2°C 64.0°F17.8°C 75% 2.3 mph 3.7 kmh 2.3 mph3.7 kmh 29.77 in1008.1 mb 0.00 in0.0 mm 0.00 in0.0 mm 0.00 in0.0 mm
11:55 PM 64.6°F18.1°C 64.0°F17.8°C 75% 5.6 mph NNW9.0 kmh NNW 5.6 mph9.0 kmh 29.77 in1008.1 mb 0.00 in0.0 mm 0.00 in0.0 mm 0.00 in0.0 mm
11:58 PM 64.7°F18.2°C 64.0°F17.8°C 75% 5.1 mph NNW8.2 kmh NNW 5.2 mph8.4 kmh 29.78 in1008.5 mb 0.00 in0.0 mm 0.00 in0.0 mm 0.00 in0.0 mm